EDW70 LSZH-FIMP
Flight info
| Callsign | EDW70 |
|---|---|
| Flight time | 10h 7m |
| Altitude | 33000 |
| Route | DEGES Z2 XEBIX L607 ELMEM N606 GIRIS DCT NIVAS DCT PEVAL DCT NERRA DCT PETAK DCT PINDO/N0487F350 UL607 ATV UL995 KEA DCT PAXIS L607 NABSI P557 LOTOB DCT KUNKI P751 LXR M999 JDW G650 RIBAM/N0497F370 G650 RASKA/N0500F360 G650 ULONI UG650 KONET/N0496F370 DCT XADOX DCT DWA UN304 APKAK/N0491F380 UN304 DENLI/N0489F390 UN304 MAEVA UL433 APKOT DCT TIBAG TIBAG2E |
| Aircraft | A359/H-SDE2E3GHIJ3J4J5LM1ORWXY/LB1D1 |
Departure
| Time | 2026-04-26 08:48 |
|---|---|
| Airport | Zürich Airport (LSZH) |
Arrival
| Time | 2026-04-26 18:56 |
|---|---|
| Airport | Sir Seewoosagur Ramgoolam International Airport (FIMP) |
| Time | Latitude | Longitude | Altitude | Speed | Heading |
|---|---|---|---|---|---|
| 2026-04-26 08:11 | 47.46140 | 8.55875 | 1415 ft | 0 kts | 276° |
| 2026-04-26 08:35 | 47.46139 | 8.55899 | 1411 ft | 4 kts | 269° |
| 2026-04-26 08:35 | 47.46142 | 8.55937 | 1414 ft | 4 kts | 251° |
| 2026-04-26 08:36 | 47.46154 | 8.55972 | 1416 ft | 4 kts | 227° |
| 2026-04-26 08:36 | 47.46175 | 8.55996 | 1415 ft | 4 kts | 203° |
| 2026-04-26 08:36 | 47.46200 | 8.56007 | 1411 ft | 3 kts | 187° |
| 2026-04-26 08:36 | 47.46204 | 8.56008 | 1411 ft | 0 kts | 186° |
| 2026-04-26 08:40 | 47.46202 | 8.56007 | 1411 ft | 2 kts | 186° |
| 2026-04-26 08:41 | 47.46161 | 8.56001 | 1412 ft | 9 kts | 186° |
| 2026-04-26 08:41 | 47.46087 | 8.55990 | 1417 ft | 12 kts | 184° |
| 2026-04-26 08:41 | 47.46025 | 8.56034 | 1419 ft | 9 kts | 124° |
| 2026-04-26 08:41 | 47.46013 | 8.56106 | 1416 ft | 5 kts | 97° |
| 2026-04-26 08:42 | 47.46010 | 8.56132 | 1417 ft | 0 kts | 98° |
| 2026-04-26 08:44 | 47.46010 | 8.56134 | 1415 ft | 1 kts | 98° |
| 2026-04-26 08:44 | 47.46007 | 8.56164 | 1423 ft | 7 kts | 97° |
| 2026-04-26 08:44 | 47.46003 | 8.56219 | 1416 ft | 0 kts | 95° |
| 2026-04-26 08:45 | 47.46003 | 8.56225 | 1422 ft | 3 kts | 94° |
| 2026-04-26 08:45 | 47.46006 | 8.56267 | 1422 ft | 4 kts | 76° |
| 2026-04-26 08:45 | 47.46021 | 8.56304 | 1420 ft | 4 kts | 49° |
| 2026-04-26 08:45 | 47.46045 | 8.56323 | 1419 ft | 4 kts | 24° |
| 2026-04-26 08:46 | 47.46075 | 8.56345 | 1420 ft | 5 kts | 32° |
| 2026-04-26 08:46 | 47.46098 | 8.56379 | 1420 ft | 5 kts | 50° |
| 2026-04-26 08:46 | 47.46122 | 8.56412 | 1421 ft | 5 kts | 29° |
| 2026-04-26 08:46 | 47.46158 | 8.56401 | 1423 ft | 6 kts | 327° |
| 2026-04-26 08:47 | 47.46180 | 8.56375 | 1415 ft | 0 kts | 319° |
| 2026-04-26 08:47 | 47.46203 | 8.56345 | 1421 ft | 25 kts | 319° |
| 2026-04-26 08:48 | 47.46517 | 8.55918 | 1410 ft | 97 kts | 317° |
| 2026-04-26 08:48 | 47.47170 | 8.55027 | 1403 ft | 157 kts | 317° |
| 2026-04-26 08:48 | 47.48071 | 8.53777 | 1699 ft | 185 kts | 317° |
| 2026-04-26 08:48 | 47.49064 | 8.52455 | 2319 ft | 198 kts | 323° |
| 2026-04-26 08:49 | 47.50184 | 8.51210 | 3026 ft | 202 kts | 327° |
| 2026-04-26 08:49 | 47.51193 | 8.49791 | 3525 ft | 202 kts | 309° |
| 2026-04-26 08:49 | 47.51686 | 8.47902 | 3978 ft | 198 kts | 274° |
| 2026-04-26 08:49 | 47.51672 | 8.45820 | 4246 ft | 209 kts | 269° |
| 2026-04-26 08:50 | 47.51386 | 8.43652 | 4463 ft | 221 kts | 245° |
| 2026-04-26 08:50 | 47.50373 | 8.41952 | 4823 ft | 224 kts | 211° |
| 2026-04-26 08:50 | 47.48887 | 8.41314 | 5197 ft | 226 kts | 179° |
| 2026-04-26 08:50 | 47.47352 | 8.41839 | 5434 ft | 234 kts | 152° |
| 2026-04-26 08:51 | 47.45665 | 8.45858 | 5876 ft | 250 kts | 91° |
| 2026-04-26 08:51 | 47.45664 | 8.48480 | 6143 ft | 260 kts | 88° |
| 2026-04-26 08:51 | 47.45690 | 8.51179 | 6541 ft | 265 kts | 89° |
| 2026-04-26 08:52 | 47.45701 | 8.53913 | 6991 ft | 270 kts | 89° |
| 2026-04-26 08:52 | 47.45728 | 8.56716 | 7450 ft | 274 kts | 86° |
| 2026-04-26 08:52 | 47.45845 | 8.59538 | 7913 ft | 277 kts | 85° |
| 2026-04-26 08:52 | 47.45972 | 8.62411 | 8381 ft | 280 kts | 85° |
| 2026-04-26 08:53 | 47.46090 | 8.65295 | 8836 ft | 284 kts | 86° |
| 2026-04-26 08:53 | 47.46202 | 8.68218 | 9306 ft | 287 kts | 86° |
| 2026-04-26 08:53 | 47.46318 | 8.71167 | 9772 ft | 289 kts | 86° |
| 2026-04-26 08:53 | 47.46392 | 8.73146 | 10099 ft | 291 kts | 86° |
| 2026-04-26 08:54 | 47.46503 | 8.76157 | 10481 ft | 297 kts | 86° |
| 2026-04-26 08:54 | 47.46616 | 8.79272 | 10724 ft | 309 kts | 85° |
| 2026-04-26 08:54 | 47.46636 | 8.82501 | 10949 ft | 321 kts | 94° |
| 2026-04-26 08:54 | 47.46256 | 8.85806 | 11204 ft | 332 kts | 101° |
| 2026-04-26 08:55 | 47.45746 | 8.89193 | 11444 ft | 343 kts | 102° |
| 2026-04-26 08:55 | 47.45227 | 8.92683 | 11687 ft | 352 kts | 101° |
| 2026-04-26 08:55 | 47.44709 | 8.96264 | 11933 ft | 362 kts | 101° |
| 2026-04-26 08:55 | 47.44179 | 8.99959 | 12173 ft | 372 kts | 101° |
| 2026-04-26 08:56 | 47.43640 | 9.03739 | 12379 ft | 381 kts | 101° |
| 2026-04-26 08:56 | 47.43084 | 9.07598 | 12589 ft | 389 kts | 101° |
| 2026-04-26 08:56 | 47.42510 | 9.11551 | 12828 ft | 396 kts | 101° |
| 2026-04-26 08:56 | 47.41927 | 9.15554 | 13153 ft | 400 kts | 101° |
| 2026-04-26 08:57 | 47.41502 | 9.19615 | 13480 ft | 403 kts | 91° |
| 2026-04-26 08:57 | 47.41696 | 9.23727 | 13850 ft | 402 kts | 80° |
| 2026-04-26 08:57 | 47.42196 | 9.27803 | 14217 ft | 404 kts | 76° |
| 2026-04-26 08:57 | 47.42829 | 9.31855 | 14583 ft | 406 kts | 75° |
| 2026-04-26 08:58 | 47.43508 | 9.35905 | 14944 ft | 408 kts | 74° |
| 2026-04-26 08:58 | 47.44189 | 9.39988 | 15332 ft | 410 kts | 75° |
| 2026-04-26 08:58 | 47.44854 | 9.44095 | 15699 ft | 412 kts | 75° |
| 2026-04-26 08:58 | 47.45501 | 9.48222 | 16064 ft | 414 kts | 75° |
| 2026-04-26 08:59 | 47.46136 | 9.52380 | 16433 ft | 416 kts | 76° |
| 2026-04-26 08:59 | 47.46755 | 9.56570 | 16768 ft | 418 kts | 77° |
| 2026-04-26 08:59 | 47.47065 | 9.60861 | 17109 ft | 423 kts | 88° |
| 2026-04-26 08:59 | 47.47023 | 9.65216 | 17449 ft | 425 kts | 90° |
| 2026-04-26 09:00 | 47.46854 | 9.69592 | 17788 ft | 427 kts | 92° |
| 2026-04-26 09:00 | 47.46616 | 9.73980 | 18103 ft | 429 kts | 93° |
| 2026-04-26 09:00 | 47.46348 | 9.78395 | 18425 ft | 431 kts | 94° |
| 2026-04-26 09:00 | 47.46075 | 9.82811 | 18721 ft | 434 kts | 93° |
| 2026-04-26 09:01 | 47.45805 | 9.87278 | 19029 ft | 436 kts | 93° |
| 2026-04-26 09:01 | 47.45541 | 9.91750 | 19332 ft | 438 kts | 93° |
| 2026-04-26 09:01 | 47.45280 | 9.96241 | 19640 ft | 440 kts | 93° |
| 2026-04-26 09:01 | 47.45020 | 10.00761 | 19940 ft | 442 kts | 93° |
| 2026-04-26 09:02 | 47.44762 | 10.05294 | 20202 ft | 445 kts | 92° |
| 2026-04-26 09:02 | 47.44500 | 10.09854 | 20520 ft | 446 kts | 93° |
| 2026-04-26 09:02 | 47.44234 | 10.14429 | 20801 ft | 449 kts | 93° |
| 2026-04-26 09:02 | 47.43844 | 10.19023 | 21069 ft | 452 kts | 97° |
| 2026-04-26 09:03 | 47.43306 | 10.23610 | 21383 ft | 454 kts | 98° |
| 2026-04-26 09:03 | 47.42715 | 10.28210 | 21657 ft | 456 kts | 99° |
| 2026-04-26 09:03 | 47.42095 | 10.32819 | 21936 ft | 459 kts | 99° |
| 2026-04-26 09:03 | 47.41451 | 10.37437 | 22215 ft | 461 kts | 101° |
| 2026-04-26 09:04 | 47.40496 | 10.41961 | 22464 ft | 465 kts | 111° |
| 2026-04-26 09:04 | 47.38963 | 10.46194 | 22701 ft | 471 kts | 123° |
| 2026-04-26 09:04 | 47.36813 | 10.49855 | 22884 ft | 474 kts | 137° |
| 2026-04-26 09:04 | 47.34149 | 10.52733 | 23138 ft | 477 kts | 147° |
| 2026-04-26 09:05 | 47.31289 | 10.55221 | 23395 ft | 479 kts | 150° |
| 2026-04-26 09:05 | 47.28389 | 10.57517 | 23663 ft | 480 kts | 152° |
| 2026-04-26 09:05 | 47.25412 | 10.59788 | 23873 ft | 483 kts | 152° |
| 2026-04-26 09:05 | 47.22416 | 10.62062 | 24127 ft | 485 kts | 152° |
| 2026-04-26 09:06 | 47.19416 | 10.64359 | 24384 ft | 486 kts | 152° |
| 2026-04-26 09:06 | 47.16341 | 10.66450 | 24628 ft | 488 kts | 158° |
| 2026-04-26 09:06 | 47.13187 | 10.68307 | 24845 ft | 490 kts | 159° |
| 2026-04-26 09:06 | 47.09994 | 10.70102 | 25100 ft | 492 kts | 159° |
| 2026-04-26 09:07 | 47.06790 | 10.71860 | 25413 ft | 492 kts | 160° |
| 2026-04-26 09:07 | 47.03580 | 10.73601 | 25664 ft | 493 kts | 160° |
| 2026-04-26 09:07 | 47.00358 | 10.75352 | 25892 ft | 496 kts | 160° |
| 2026-04-26 09:07 | 46.97129 | 10.77148 | 26153 ft | 497 kts | 159° |
| 2026-04-26 09:08 | 46.93899 | 10.78971 | 26404 ft | 499 kts | 159° |
| 2026-04-26 09:08 | 46.90649 | 10.80812 | 26655 ft | 501 kts | 159° |
| 2026-04-26 09:08 | 46.87399 | 10.82651 | 26922 ft | 502 kts | 159° |
| 2026-04-26 09:08 | 46.84135 | 10.84494 | 27160 ft | 503 kts | 159° |
| 2026-04-26 09:09 | 46.80908 | 10.86446 | 27627 ft | 499 kts | 155° |
| 2026-04-26 09:09 | 46.77878 | 10.88911 | 27935 ft | 500 kts | 147° |
| 2026-04-26 09:09 | 46.75129 | 10.92036 | 28107 ft | 503 kts | 137° |
| 2026-04-26 09:09 | 46.72666 | 10.95662 | 28346 ft | 504 kts | 133° |
| 2026-04-26 09:10 | 46.70295 | 10.99436 | 28540 ft | 505 kts | 131° |
| 2026-04-26 09:10 | 46.67972 | 11.03269 | 28722 ft | 507 kts | 131° |
| 2026-04-26 09:10 | 46.65645 | 11.07150 | 28855 ft | 509 kts | 131° |
| 2026-04-26 09:10 | 46.63313 | 11.11034 | 29038 ft | 510 kts | 131° |
| 2026-04-26 09:11 | 46.60972 | 11.14903 | 29284 ft | 510 kts | 131° |
| 2026-04-26 09:11 | 46.58618 | 11.18761 | 29558 ft | 508 kts | 131° |
| 2026-04-26 09:11 | 46.56267 | 11.22592 | 29854 ft | 507 kts | 132° |
| 2026-04-26 09:11 | 46.53918 | 11.26406 | 30118 ft | 507 kts | 132° |
| 2026-04-26 09:12 | 46.51569 | 11.30212 | 30363 ft | 506 kts | 132° |
| 2026-04-26 09:12 | 46.49219 | 11.34011 | 30600 ft | 505 kts | 132° |
| 2026-04-26 09:12 | 46.46872 | 11.37802 | 30861 ft | 505 kts | 132° |
| 2026-04-26 09:12 | 46.44525 | 11.41588 | 31114 ft | 504 kts | 132° |
| 2026-04-26 09:13 | 46.42184 | 11.45361 | 31344 ft | 503 kts | 132° |
| 2026-04-26 09:13 | 46.39845 | 11.49126 | 31560 ft | 503 kts | 132° |
| 2026-04-26 09:13 | 46.37500 | 11.52894 | 31798 ft | 502 kts | 132° |
| 2026-04-26 09:13 | 46.35159 | 11.56651 | 32022 ft | 502 kts | 132° |
| 2026-04-26 09:14 | 46.32825 | 11.60393 | 32231 ft | 501 kts | 132° |
| 2026-04-26 09:14 | 46.30487 | 11.64136 | 32439 ft | 501 kts | 132° |
| 2026-04-26 09:14 | 46.28150 | 11.67871 | 32655 ft | 501 kts | 132° |
| 2026-04-26 09:14 | 46.25812 | 11.71603 | 32814 ft | 501 kts | 132° |
| 2026-04-26 09:15 | 46.23472 | 11.75333 | 33010 ft | 501 kts | 132° |
| 2026-04-26 09:15 | 46.21165 | 11.79005 | 33193 ft | 500 kts | 132° |
| 2026-04-26 09:15 | 46.18822 | 11.82729 | 33272 ft | 503 kts | 132° |
| 2026-04-26 09:16 | 46.14077 | 11.90252 | 33241 ft | 508 kts | 132° |
| 2026-04-26 09:16 | 46.09318 | 11.97784 | 33232 ft | 507 kts | 132° |
| 2026-04-26 09:17 | 46.04569 | 12.05278 | 33215 ft | 507 kts | 132° |
| 2026-04-26 09:17 | 45.99814 | 12.12759 | 33186 ft | 507 kts | 132° |
| 2026-04-26 09:18 | 45.95052 | 12.20229 | 33149 ft | 506 kts | 132° |
| 2026-04-26 09:18 | 45.90287 | 12.27686 | 33131 ft | 506 kts | 132° |
| 2026-04-26 09:19 | 45.85611 | 12.35246 | 33125 ft | 506 kts | 130° |
| 2026-04-26 09:19 | 45.81052 | 12.42936 | 33119 ft | 506 kts | 130° |
| 2026-04-26 09:20 | 45.76478 | 12.50612 | 33118 ft | 506 kts | 130° |
| 2026-04-26 09:20 | 45.71870 | 12.58259 | 33119 ft | 507 kts | 131° |
| 2026-04-26 09:21 | 45.67257 | 12.65869 | 33110 ft | 506 kts | 131° |
| 2026-04-26 09:21 | 45.62639 | 12.73465 | 33103 ft | 505 kts | 131° |
| 2026-04-26 09:22 | 45.58024 | 12.81033 | 33102 ft | 506 kts | 131° |
| 2026-04-26 09:22 | 45.53402 | 12.88598 | 33103 ft | 506 kts | 131° |
| 2026-04-26 09:23 | 45.48770 | 12.96157 | 33099 ft | 505 kts | 131° |
| 2026-04-26 09:23 | 45.44142 | 13.03690 | 33096 ft | 506 kts | 131° |
| 2026-04-26 09:24 | 45.39506 | 13.11215 | 33100 ft | 506 kts | 131° |
| 2026-04-26 09:24 | 45.34867 | 13.18725 | 33101 ft | 505 kts | 131° |
| 2026-04-26 09:25 | 45.30233 | 13.26222 | 33100 ft | 505 kts | 130° |
| 2026-04-26 09:25 | 45.25969 | 13.34128 | 33100 ft | 505 kts | 125° |
| 2026-04-26 09:26 | 45.21903 | 13.42261 | 33099 ft | 505 kts | 125° |
| 2026-04-26 09:26 | 45.17784 | 13.50328 | 33100 ft | 505 kts | 126° |
| 2026-04-26 09:27 | 45.13637 | 13.58271 | 33102 ft | 505 kts | 126° |
| 2026-04-26 09:27 | 45.09441 | 13.66233 | 33101 ft | 505 kts | 127° |
| 2026-04-26 09:28 | 45.05230 | 13.74200 | 33100 ft | 506 kts | 127° |
| 2026-04-26 09:28 | 45.01009 | 13.82172 | 33100 ft | 506 kts | 127° |
| 2026-04-26 09:29 | 44.96792 | 13.90121 | 33100 ft | 506 kts | 127° |
| 2026-04-26 09:29 | 44.92570 | 13.98054 | 33101 ft | 505 kts | 127° |
| 2026-04-26 09:30 | 44.88343 | 14.05978 | 33098 ft | 505 kts | 127° |
| 2026-04-26 09:30 | 44.84108 | 14.13893 | 33102 ft | 506 kts | 127° |
| 2026-04-26 09:31 | 44.79862 | 14.21806 | 33099 ft | 507 kts | 127° |
| 2026-04-26 09:31 | 44.75613 | 14.29706 | 33101 ft | 506 kts | 127° |
| 2026-04-26 09:32 | 44.71354 | 14.37599 | 33099 ft | 506 kts | 127° |
| 2026-04-26 09:32 | 44.67118 | 14.45427 | 33102 ft | 506 kts | 127° |
| 2026-04-26 09:33 | 44.62849 | 14.53294 | 33102 ft | 506 kts | 127° |
| 2026-04-26 09:33 | 44.58572 | 14.61158 | 33103 ft | 506 kts | 127° |
| 2026-04-26 09:34 | 44.54298 | 14.68994 | 33102 ft | 506 kts | 127° |
| 2026-04-26 09:34 | 44.50011 | 14.76829 | 33098 ft | 506 kts | 127° |
| 2026-04-26 09:35 | 44.45719 | 14.84656 | 33103 ft | 506 kts | 127° |
| 2026-04-26 09:35 | 44.41425 | 14.92465 | 33097 ft | 506 kts | 128° |
| 2026-04-26 09:36 | 44.37129 | 15.00256 | 33103 ft | 507 kts | 128° |
| 2026-04-26 09:36 | 44.32838 | 15.08020 | 33098 ft | 507 kts | 128° |
| 2026-04-26 09:37 | 44.28518 | 15.15812 | 33103 ft | 507 kts | 128° |
| 2026-04-26 09:37 | 44.24198 | 15.23583 | 33102 ft | 507 kts | 128° |
| 2026-04-26 09:38 | 44.19853 | 15.31377 | 33102 ft | 508 kts | 128° |
| 2026-04-26 09:38 | 44.15515 | 15.39139 | 33102 ft | 508 kts | 128° |
| 2026-04-26 09:39 | 44.11159 | 15.46912 | 33097 ft | 509 kts | 128° |
| 2026-04-26 09:39 | 44.06797 | 15.54672 | 33099 ft | 509 kts | 128° |
| 2026-04-26 09:40 | 44.02425 | 15.62432 | 33098 ft | 509 kts | 128° |
| 2026-04-26 09:40 | 43.98052 | 15.70173 | 33101 ft | 510 kts | 128° |
| 2026-04-26 09:41 | 43.93669 | 15.77911 | 33099 ft | 510 kts | 128° |
| 2026-04-26 09:41 | 43.90025 | 15.84329 | 33102 ft | 510 kts | 128° |
| 2026-04-26 09:42 | 43.85634 | 15.92043 | 33101 ft | 510 kts | 128° |
| 2026-04-26 09:42 | 43.81235 | 15.99749 | 33101 ft | 510 kts | 128° |
| 2026-04-26 09:43 | 43.76835 | 16.07434 | 33102 ft | 510 kts | 129° |
| 2026-04-26 09:43 | 43.72427 | 16.15119 | 33098 ft | 510 kts | 129° |
| 2026-04-26 09:44 | 43.68014 | 16.22797 | 33101 ft | 510 kts | 129° |
| 2026-04-26 09:44 | 43.63603 | 16.30448 | 33101 ft | 510 kts | 129° |
| 2026-04-26 09:45 | 43.59168 | 16.38115 | 33104 ft | 511 kts | 129° |
| 2026-04-26 09:45 | 43.54734 | 16.45762 | 33099 ft | 511 kts | 129° |
| 2026-04-26 09:46 | 43.50284 | 16.53417 | 33103 ft | 512 kts | 129° |
| 2026-04-26 09:46 | 43.45824 | 16.61064 | 33102 ft | 512 kts | 129° |
| 2026-04-26 09:47 | 43.41363 | 16.68698 | 33099 ft | 512 kts | 129° |
| 2026-04-26 09:47 | 43.36899 | 16.76320 | 33098 ft | 512 kts | 129° |
| 2026-04-26 09:48 | 43.32425 | 16.83939 | 33101 ft | 512 kts | 129° |
| 2026-04-26 09:48 | 43.27941 | 16.91551 | 33099 ft | 512 kts | 129° |
| 2026-04-26 09:49 | 43.23452 | 16.99150 | 33091 ft | 513 kts | 129° |
| 2026-04-26 09:49 | 43.18953 | 17.06749 | 33091 ft | 513 kts | 130° |
| 2026-04-26 09:50 | 43.14449 | 17.14338 | 33091 ft | 513 kts | 130° |
| 2026-04-26 09:50 | 43.09940 | 17.21916 | 33091 ft | 513 kts | 130° |
| 2026-04-26 09:51 | 43.05422 | 17.29488 | 33082 ft | 514 kts | 130° |
| 2026-04-26 09:51 | 43.00924 | 17.37007 | 33081 ft | 514 kts | 130° |
| 2026-04-26 09:52 | 42.96393 | 17.44560 | 33082 ft | 514 kts | 130° |
| 2026-04-26 09:52 | 42.89582 | 17.55883 | 33082 ft | 515 kts | 130° |
| 2026-04-26 09:53 | 42.84969 | 17.63363 | 33094 ft | 515 kts | 131° |
| 2026-04-26 09:53 | 42.80316 | 17.70793 | 33103 ft | 515 kts | 131° |
| 2026-04-26 09:54 | 42.78001 | 17.74489 | 33368 ft | 512 kts | 131° |
| 2026-04-26 09:54 | 42.75698 | 17.78172 | 33695 ft | 509 kts | 131° |
| 2026-04-26 09:54 | 42.73417 | 17.81820 | 33924 ft | 508 kts | 131° |
| 2026-04-26 09:54 | 42.71118 | 17.85494 | 34017 ft | 509 kts | 131° |
| 2026-04-26 09:55 | 42.68825 | 17.89156 | 34198 ft | 509 kts | 131° |
| 2026-04-26 09:55 | 42.66530 | 17.92819 | 34392 ft | 508 kts | 131° |
| 2026-04-26 09:55 | 42.64251 | 17.96452 | 34555 ft | 507 kts | 132° |
| 2026-04-26 09:55 | 42.61953 | 18.00108 | 34692 ft | 507 kts | 132° |
| 2026-04-26 09:56 | 42.57366 | 18.07390 | 34888 ft | 509 kts | 132° |
| 2026-04-26 09:56 | 42.55066 | 18.11035 | 35028 ft | 508 kts | 132° |
| 2026-04-26 09:56 | 42.52760 | 18.14685 | 35102 ft | 510 kts | 132° |
| 2026-04-26 09:57 | 42.48121 | 18.22015 | 35100 ft | 515 kts | 132° |
| 2026-04-26 09:57 | 42.43457 | 18.29368 | 35101 ft | 515 kts | 132° |
| 2026-04-26 09:58 | 42.38784 | 18.36717 | 35097 ft | 514 kts | 132° |
| 2026-04-26 09:58 | 42.34114 | 18.44041 | 35098 ft | 514 kts | 132° |
| 2026-04-26 09:59 | 42.29438 | 18.51356 | 35079 ft | 515 kts | 132° |
| 2026-04-26 09:59 | 42.24787 | 18.58616 | 35096 ft | 514 kts | 132° |
| 2026-04-26 10:00 | 42.20105 | 18.65908 | 35084 ft | 515 kts | 132° |
| 2026-04-26 10:00 | 42.15404 | 18.73208 | 35090 ft | 515 kts | 133° |
| 2026-04-26 10:01 | 42.10698 | 18.80498 | 35074 ft | 516 kts | 133° |
| 2026-04-26 10:01 | 42.05988 | 18.87778 | 35070 ft | 517 kts | 133° |
| 2026-04-26 10:02 | 42.01263 | 18.95061 | 35079 ft | 516 kts | 133° |
| 2026-04-26 10:02 | 41.96530 | 19.02340 | 35073 ft | 517 kts | 133° |
| 2026-04-26 10:03 | 41.91794 | 19.09605 | 35075 ft | 516 kts | 133° |
| 2026-04-26 10:03 | 41.87069 | 19.16840 | 35071 ft | 517 kts | 133° |
| 2026-04-26 10:04 | 41.82324 | 19.24083 | 35073 ft | 517 kts | 133° |
| 2026-04-26 10:04 | 41.77572 | 19.31318 | 35096 ft | 517 kts | 133° |
| 2026-04-26 10:05 | 41.72589 | 19.38256 | 35096 ft | 516 kts | 138° |
| 2026-04-26 10:05 | 41.67388 | 19.44797 | 35083 ft | 516 kts | 139° |
| 2026-04-26 10:06 | 41.62175 | 19.51390 | 35078 ft | 516 kts | 138° |
| 2026-04-26 10:06 | 41.56990 | 19.58058 | 35072 ft | 517 kts | 138° |
| 2026-04-26 10:07 | 41.51817 | 19.64742 | 35071 ft | 518 kts | 138° |
| 2026-04-26 10:07 | 41.46646 | 19.71417 | 35072 ft | 517 kts | 138° |
| 2026-04-26 10:08 | 41.41476 | 19.78070 | 35079 ft | 517 kts | 138° |
| 2026-04-26 10:08 | 41.36299 | 19.84712 | 35075 ft | 517 kts | 138° |
| 2026-04-26 10:09 | 41.31115 | 19.91348 | 35070 ft | 517 kts | 138° |
| 2026-04-26 10:09 | 41.25942 | 19.97953 | 35078 ft | 516 kts | 138° |
| 2026-04-26 10:10 | 41.20755 | 20.04559 | 35069 ft | 516 kts | 137° |
| 2026-04-26 10:10 | 41.15566 | 20.11155 | 35078 ft | 516 kts | 137° |
| 2026-04-26 10:11 | 41.10376 | 20.17737 | 35085 ft | 516 kts | 137° |
| 2026-04-26 10:11 | 41.05191 | 20.24296 | 35084 ft | 515 kts | 137° |
| 2026-04-26 10:12 | 41.00008 | 20.30839 | 35081 ft | 514 kts | 137° |
| 2026-04-26 10:12 | 40.94829 | 20.37364 | 35098 ft | 514 kts | 137° |
| 2026-04-26 10:13 | 40.89654 | 20.43868 | 35098 ft | 513 kts | 137° |
| 2026-04-26 10:13 | 40.84480 | 20.50354 | 35099 ft | 513 kts | 137° |
| 2026-04-26 10:14 | 40.79305 | 20.56825 | 35098 ft | 512 kts | 137° |
| 2026-04-26 10:14 | 40.74135 | 20.63278 | 35099 ft | 512 kts | 137° |
| 2026-04-26 10:15 | 40.68961 | 20.69725 | 35093 ft | 512 kts | 137° |
| 2026-04-26 10:15 | 40.63829 | 20.76099 | 35094 ft | 511 kts | 137° |
| 2026-04-26 10:16 | 40.58604 | 20.82577 | 35078 ft | 511 kts | 137° |
| 2026-04-26 10:16 | 40.53423 | 20.88986 | 35097 ft | 511 kts | 137° |
| 2026-04-26 10:17 | 40.48247 | 20.95376 | 35090 ft | 512 kts | 137° |
| 2026-04-26 10:17 | 40.42969 | 21.01663 | 35080 ft | 512 kts | 139° |
| 2026-04-26 10:18 | 40.37611 | 21.07750 | 35075 ft | 512 kts | 140° |
| 2026-04-26 10:18 | 40.32208 | 21.13893 | 35078 ft | 512 kts | 139° |
| 2026-04-26 10:19 | 40.26895 | 21.19973 | 35080 ft | 512 kts | 139° |
| 2026-04-26 10:19 | 40.21494 | 21.26162 | 35072 ft | 512 kts | 139° |
| 2026-04-26 10:20 | 40.17035 | 21.31261 | 35074 ft | 512 kts | 139° |
| 2026-04-26 10:20 | 40.10763 | 21.38416 | 35074 ft | 511 kts | 139° |
| 2026-04-26 10:21 | 40.05443 | 21.44471 | 35068 ft | 511 kts | 139° |
| 2026-04-26 10:21 | 40.00042 | 21.50602 | 35068 ft | 511 kts | 139° |
| 2026-04-26 10:22 | 39.94678 | 21.56677 | 35073 ft | 510 kts | 138° |
| 2026-04-26 10:22 | 39.89344 | 21.62704 | 35068 ft | 511 kts | 138° |
| 2026-04-26 10:23 | 39.83975 | 21.68763 | 35078 ft | 511 kts | 139° |
| 2026-04-26 10:23 | 39.78596 | 21.74817 | 35078 ft | 511 kts | 139° |
| 2026-04-26 10:24 | 39.73218 | 21.80854 | 35064 ft | 511 kts | 139° |
| 2026-04-26 10:24 | 39.67839 | 21.86882 | 35057 ft | 511 kts | 139° |
| 2026-04-26 10:25 | 39.62453 | 21.92904 | 35054 ft | 511 kts | 139° |
| 2026-04-26 10:25 | 39.57068 | 21.98915 | 35048 ft | 511 kts | 139° |
| 2026-04-26 10:26 | 39.51679 | 22.04915 | 35045 ft | 511 kts | 139° |
| 2026-04-26 10:26 | 39.46284 | 22.10906 | 35037 ft | 510 kts | 138° |
| 2026-04-26 10:27 | 39.40899 | 22.16874 | 35036 ft | 510 kts | 138° |
| 2026-04-26 10:27 | 39.36417 | 22.21834 | 35036 ft | 510 kts | 138° |
| 2026-04-26 10:28 | 39.31032 | 22.27784 | 35025 ft | 509 kts | 138° |
| 2026-04-26 10:28 | 39.25651 | 22.33714 | 35030 ft | 509 kts | 138° |
| 2026-04-26 10:29 | 39.20262 | 22.39636 | 35030 ft | 509 kts | 138° |
| 2026-04-26 10:29 | 39.14878 | 22.45544 | 35030 ft | 508 kts | 138° |
| 2026-04-26 10:30 | 39.09494 | 22.51441 | 35025 ft | 508 kts | 138° |
| 2026-04-26 10:30 | 39.04109 | 22.57327 | 35032 ft | 508 kts | 137° |
| 2026-04-26 10:31 | 38.98726 | 22.63199 | 35031 ft | 507 kts | 137° |
| 2026-04-26 10:31 | 38.93347 | 22.69051 | 35028 ft | 506 kts | 137° |
| 2026-04-26 10:32 | 38.87978 | 22.74886 | 35026 ft | 506 kts | 137° |
| 2026-04-26 10:32 | 38.82598 | 22.80721 | 35025 ft | 506 kts | 137° |
| 2026-04-26 10:33 | 38.77225 | 22.86535 | 35026 ft | 505 kts | 137° |
| 2026-04-26 10:33 | 38.71846 | 22.92339 | 35025 ft | 505 kts | 137° |
| 2026-04-26 10:34 | 38.66471 | 22.98130 | 35028 ft | 505 kts | 137° |
| 2026-04-26 10:34 | 38.61093 | 23.03914 | 35024 ft | 505 kts | 137° |
| 2026-04-26 10:35 | 38.55753 | 23.09641 | 35026 ft | 505 kts | 137° |
| 2026-04-26 10:35 | 38.50368 | 23.15405 | 35024 ft | 505 kts | 137° |
| 2026-04-26 10:36 | 38.44990 | 23.21154 | 35024 ft | 504 kts | 137° |
| 2026-04-26 10:36 | 38.39616 | 23.26887 | 35023 ft | 504 kts | 137° |
| 2026-04-26 10:37 | 38.34228 | 23.32620 | 35017 ft | 504 kts | 137° |
| 2026-04-26 10:37 | 38.28846 | 23.38335 | 35019 ft | 504 kts | 137° |
| 2026-04-26 10:38 | 38.23463 | 23.44043 | 35020 ft | 503 kts | 137° |
| 2026-04-26 10:38 | 38.18082 | 23.49739 | 35012 ft | 504 kts | 137° |
| 2026-04-26 10:39 | 38.12696 | 23.55429 | 35021 ft | 503 kts | 137° |
| 2026-04-26 10:39 | 38.07312 | 23.61099 | 35017 ft | 503 kts | 137° |
| 2026-04-26 10:40 | 38.01929 | 23.66756 | 35023 ft | 502 kts | 136° |
| 2026-04-26 10:40 | 37.96554 | 23.72396 | 35028 ft | 502 kts | 136° |
| 2026-04-26 10:41 | 37.91163 | 23.78043 | 35036 ft | 502 kts | 137° |
| 2026-04-26 10:41 | 37.86304 | 23.84299 | 35044 ft | 496 kts | 127° |
| 2026-04-26 10:42 | 37.81820 | 23.90929 | 35046 ft | 496 kts | 126° |
| 2026-04-26 10:42 | 37.77387 | 23.97603 | 35049 ft | 496 kts | 126° |
| 2026-04-26 10:43 | 37.72937 | 24.04281 | 35046 ft | 496 kts | 126° |
| 2026-04-26 10:43 | 37.68478 | 24.10930 | 35045 ft | 496 kts | 126° |
| 2026-04-26 10:44 | 37.64003 | 24.17582 | 35045 ft | 497 kts | 126° |
| 2026-04-26 10:44 | 37.59529 | 24.24219 | 35038 ft | 497 kts | 126° |
| 2026-04-26 10:45 | 37.54739 | 24.30534 | 35035 ft | 503 kts | 137° |
| 2026-04-26 10:45 | 37.49163 | 24.35789 | 35035 ft | 505 kts | 141° |
| 2026-04-26 10:46 | 37.43414 | 24.40875 | 35031 ft | 505 kts | 142° |
| 2026-04-26 10:46 | 37.37651 | 24.45931 | 35023 ft | 506 kts | 142° |
| 2026-04-26 10:47 | 37.31889 | 24.51009 | 35019 ft | 505 kts | 142° |
| 2026-04-26 10:47 | 37.26137 | 24.56085 | 35019 ft | 505 kts | 142° |
| 2026-04-26 10:48 | 37.20387 | 24.61153 | 35013 ft | 506 kts | 142° |
| 2026-04-26 10:48 | 37.14625 | 24.66224 | 35010 ft | 505 kts | 142° |
| 2026-04-26 10:49 | 37.08872 | 24.71276 | 35004 ft | 506 kts | 142° |
| 2026-04-26 10:49 | 37.03104 | 24.76329 | 34997 ft | 506 kts | 142° |
| 2026-04-26 10:50 | 36.98309 | 24.80522 | 35001 ft | 506 kts | 142° |
| 2026-04-26 10:50 | 36.91563 | 24.86415 | 34985 ft | 506 kts | 142° |
| 2026-04-26 10:51 | 36.82909 | 24.93953 | 35000 ft | 506 kts | 142° |
| 2026-04-26 10:52 | 36.77133 | 24.98970 | 35003 ft | 506 kts | 142° |
| 2026-04-26 10:52 | 36.71358 | 25.03980 | 35002 ft | 506 kts | 142° |
| 2026-04-26 10:53 | 36.65578 | 25.08986 | 34984 ft | 506 kts | 142° |
| 2026-04-26 10:53 | 36.59792 | 25.13984 | 34986 ft | 506 kts | 143° |
| 2026-04-26 10:54 | 36.51116 | 25.21462 | 34986 ft | 506 kts | 143° |
| 2026-04-26 10:54 | 36.45335 | 25.26434 | 34986 ft | 506 kts | 143° |
| 2026-04-26 10:55 | 36.39551 | 25.31402 | 34996 ft | 505 kts | 143° |
| 2026-04-26 10:55 | 36.34745 | 25.35520 | 35002 ft | 505 kts | 143° |
| 2026-04-26 10:56 | 36.27978 | 25.41308 | 34986 ft | 505 kts | 143° |
| 2026-04-26 10:56 | 36.22195 | 25.46246 | 35003 ft | 505 kts | 143° |
| 2026-04-26 10:57 | 36.16451 | 25.51143 | 34985 ft | 505 kts | 143° |
| 2026-04-26 10:57 | 36.10634 | 25.56091 | 34986 ft | 504 kts | 143° |
| 2026-04-26 10:58 | 36.04846 | 25.61006 | 35003 ft | 504 kts | 144° |
| 2026-04-26 10:58 | 35.99097 | 25.65877 | 34987 ft | 504 kts | 144° |
| 2026-04-26 10:59 | 35.93313 | 25.70770 | 34984 ft | 505 kts | 144° |
| 2026-04-26 10:59 | 35.87518 | 25.75665 | 35003 ft | 505 kts | 144° |
| 2026-04-26 11:00 | 35.81729 | 25.80546 | 34986 ft | 504 kts | 144° |
| 2026-04-26 11:00 | 35.75932 | 25.85424 | 34984 ft | 505 kts | 144° |
| 2026-04-26 11:01 | 35.70128 | 25.90299 | 35003 ft | 505 kts | 144° |
| 2026-04-26 11:01 | 35.64326 | 25.95164 | 34985 ft | 505 kts | 144° |
| 2026-04-26 11:02 | 35.58523 | 26.00021 | 34985 ft | 506 kts | 144° |
| 2026-04-26 11:02 | 35.52710 | 26.04878 | 34984 ft | 505 kts | 144° |
| 2026-04-26 11:03 | 35.46894 | 26.09728 | 34980 ft | 505 kts | 145° |
| 2026-04-26 11:03 | 35.41079 | 26.14570 | 34980 ft | 505 kts | 145° |
| 2026-04-26 11:04 | 35.35251 | 26.19415 | 34980 ft | 506 kts | 145° |
| 2026-04-26 11:04 | 35.29419 | 26.24252 | 34980 ft | 507 kts | 145° |
| 2026-04-26 11:05 | 35.23577 | 26.29090 | 34972 ft | 507 kts | 146° |
| 2026-04-26 11:05 | 35.17728 | 26.33925 | 34970 ft | 508 kts | 146° |
| 2026-04-26 11:06 | 35.12859 | 26.37946 | 34971 ft | 508 kts | 146° |
| 2026-04-26 11:06 | 35.05998 | 26.43597 | 34964 ft | 509 kts | 146° |
| 2026-04-26 11:07 | 35.00123 | 26.48426 | 34962 ft | 509 kts | 146° |
| 2026-04-26 11:07 | 34.94276 | 26.53224 | 34959 ft | 510 kts | 146° |
| 2026-04-26 11:08 | 34.88384 | 26.58051 | 34962 ft | 511 kts | 147° |
| 2026-04-26 11:08 | 34.82483 | 26.62878 | 34964 ft | 511 kts | 147° |
| 2026-04-26 11:09 | 34.76577 | 26.67701 | 34959 ft | 511 kts | 147° |
| 2026-04-26 11:09 | 34.70670 | 26.72513 | 34959 ft | 512 kts | 147° |
| 2026-04-26 11:10 | 34.64756 | 26.77326 | 34959 ft | 512 kts | 147° |
| 2026-04-26 11:10 | 34.58830 | 26.82140 | 34961 ft | 512 kts | 147° |
| 2026-04-26 11:11 | 34.52910 | 26.86941 | 34964 ft | 512 kts | 147° |
| 2026-04-26 11:11 | 34.46991 | 26.91733 | 34963 ft | 512 kts | 147° |
| 2026-04-26 11:12 | 34.41061 | 26.96524 | 34960 ft | 512 kts | 147° |
| 2026-04-26 11:12 | 34.35137 | 27.01303 | 34963 ft | 511 kts | 148° |
| 2026-04-26 11:13 | 34.29211 | 27.06072 | 34971 ft | 512 kts | 148° |
| 2026-04-26 11:13 | 34.23290 | 27.10832 | 34971 ft | 511 kts | 148° |
| 2026-04-26 11:14 | 34.18371 | 27.14781 | 34971 ft | 510 kts | 148° |
| 2026-04-26 11:14 | 34.12461 | 27.19517 | 34953 ft | 510 kts | 148° |
| 2026-04-26 11:15 | 34.05588 | 27.25015 | 34950 ft | 509 kts | 148° |
| 2026-04-26 11:15 | 33.99684 | 27.29729 | 34949 ft | 509 kts | 148° |
| 2026-04-26 11:16 | 33.94734 | 27.33675 | 34953 ft | 510 kts | 149° |
| 2026-04-26 11:16 | 33.88815 | 27.38428 | 34953 ft | 512 kts | 149° |
| 2026-04-26 11:17 | 33.82944 | 27.43168 | 34950 ft | 511 kts | 149° |
| 2026-04-26 11:17 | 33.77042 | 27.47924 | 34963 ft | 511 kts | 149° |
| 2026-04-26 11:18 | 33.71136 | 27.52667 | 34963 ft | 510 kts | 149° |
| 2026-04-26 11:18 | 33.65223 | 27.57403 | 34963 ft | 510 kts | 149° |
| 2026-04-26 11:19 | 33.59324 | 27.62120 | 34963 ft | 510 kts | 149° |
| 2026-04-26 11:19 | 33.53414 | 27.66839 | 34960 ft | 511 kts | 149° |
| 2026-04-26 11:20 | 33.47495 | 27.71558 | 34970 ft | 511 kts | 149° |
| 2026-04-26 11:20 | 33.41583 | 27.76264 | 34971 ft | 511 kts | 150° |
| 2026-04-26 11:21 | 33.35655 | 27.80976 | 34970 ft | 511 kts | 150° |
| 2026-04-26 11:21 | 33.29717 | 27.85685 | 34971 ft | 512 kts | 150° |
| 2026-04-26 11:22 | 33.23778 | 27.90387 | 34977 ft | 513 kts | 150° |
| 2026-04-26 11:22 | 33.17829 | 27.95090 | 34982 ft | 513 kts | 150° |
| 2026-04-26 11:23 | 33.11864 | 27.99798 | 34978 ft | 514 kts | 150° |
| 2026-04-26 11:23 | 33.05890 | 28.04506 | 34971 ft | 513 kts | 151° |
| 2026-04-26 11:24 | 32.99942 | 28.09188 | 34971 ft | 512 kts | 151° |
| 2026-04-26 11:24 | 32.93987 | 28.13864 | 34972 ft | 513 kts | 152° |
| 2026-04-26 11:25 | 32.88022 | 28.18541 | 34974 ft | 514 kts | 152° |
| 2026-04-26 11:25 | 32.82050 | 28.23216 | 34981 ft | 514 kts | 152° |
| 2026-04-26 11:26 | 32.76114 | 28.27854 | 34981 ft | 515 kts | 152° |
| 2026-04-26 11:26 | 32.70076 | 28.32563 | 34981 ft | 516 kts | 152° |
| 2026-04-26 11:27 | 32.64076 | 28.37240 | 34980 ft | 516 kts | 152° |
| 2026-04-26 11:27 | 32.58107 | 28.41883 | 34981 ft | 517 kts | 152° |
| 2026-04-26 11:28 | 32.52091 | 28.46554 | 34980 ft | 517 kts | 152° |
| 2026-04-26 11:28 | 32.46077 | 28.51216 | 34980 ft | 517 kts | 152° |
| 2026-04-26 11:29 | 32.40054 | 28.55877 | 34981 ft | 517 kts | 153° |
| 2026-04-26 11:29 | 32.34027 | 28.60535 | 34980 ft | 517 kts | 153° |
| 2026-04-26 11:30 | 32.28976 | 28.64431 | 34980 ft | 517 kts | 153° |
| 2026-04-26 11:30 | 32.21965 | 28.69832 | 34985 ft | 518 kts | 153° |
| 2026-04-26 11:31 | 32.15935 | 28.74470 | 34986 ft | 518 kts | 153° |
| 2026-04-26 11:31 | 32.09903 | 28.79100 | 35003 ft | 517 kts | 153° |
| 2026-04-26 11:32 | 32.03872 | 28.83720 | 35003 ft | 517 kts | 153° |
| 2026-04-26 11:32 | 31.97847 | 28.88332 | 34986 ft | 517 kts | 153° |
| 2026-04-26 11:33 | 31.91805 | 28.92951 | 34984 ft | 520 kts | 154° |
| 2026-04-26 11:33 | 31.85725 | 28.97585 | 34996 ft | 521 kts | 154° |
| 2026-04-26 11:34 | 31.79635 | 29.02226 | 34988 ft | 521 kts | 154° |
| 2026-04-26 11:34 | 31.73333 | 29.05985 | 34987 ft | 502 kts | 170° |
| 2026-04-26 11:35 | 31.69938 | 29.06966 | 34986 ft | 490 kts | 180° |
| 2026-04-26 11:35 | 31.66571 | 29.07318 | 34983 ft | 483 kts | 185° |
| 2026-04-26 11:35 | 31.61007 | 29.07486 | 34985 ft | 481 kts | 187° |
| 2026-04-26 11:36 | 31.53228 | 29.07525 | 34985 ft | 481 kts | 188° |
| 2026-04-26 11:36 | 31.46531 | 29.07575 | 34985 ft | 481 kts | 187° |
| 2026-04-26 11:37 | 31.39837 | 29.07658 | 34989 ft | 481 kts | 187° |
| 2026-04-26 11:37 | 31.33146 | 29.07754 | 34988 ft | 481 kts | 187° |
| 2026-04-26 11:38 | 31.26458 | 29.07851 | 34987 ft | 481 kts | 187° |
| 2026-04-26 11:38 | 31.19773 | 29.07946 | 34988 ft | 481 kts | 188° |
| 2026-04-26 11:39 | 31.13077 | 29.08046 | 34996 ft | 481 kts | 188° |
| 2026-04-26 11:39 | 31.06372 | 29.08140 | 34987 ft | 482 kts | 188° |
| 2026-04-26 11:40 | 30.99668 | 29.08234 | 34985 ft | 481 kts | 188° |
| 2026-04-26 11:40 | 30.92976 | 29.08329 | 34991 ft | 481 kts | 188° |
| 2026-04-26 11:42 | 30.66226 | 29.08712 | 34997 ft | 480 kts | 188° |
| 2026-04-26 11:43 | 30.59534 | 29.08808 | 34985 ft | 480 kts | 188° |
| 2026-04-26 11:43 | 30.52856 | 29.08902 | 34984 ft | 480 kts | 188° |
| 2026-04-26 11:44 | 30.46217 | 29.08999 | 34994 ft | 480 kts | 188° |
| 2026-04-26 11:44 | 30.39543 | 29.09084 | 35000 ft | 480 kts | 189° |
| 2026-04-26 11:45 | 30.32868 | 29.09165 | 34984 ft | 480 kts | 189° |
| 2026-04-26 11:45 | 30.26194 | 29.09248 | 34989 ft | 479 kts | 189° |
| 2026-04-26 11:46 | 30.19525 | 29.09330 | 35003 ft | 479 kts | 189° |
| 2026-04-26 11:46 | 30.12862 | 29.09414 | 34984 ft | 479 kts | 189° |
| 2026-04-26 11:47 | 30.06184 | 29.09488 | 34999 ft | 479 kts | 189° |
| 2026-04-26 11:47 | 29.99526 | 29.09561 | 35003 ft | 479 kts | 189° |
| 2026-04-26 11:48 | 29.92857 | 29.09642 | 35005 ft | 479 kts | 190° |
| 2026-04-26 11:48 | 29.86199 | 29.09717 | 35002 ft | 479 kts | 190° |
| 2026-04-26 11:49 | 29.79573 | 29.09790 | 34997 ft | 479 kts | 190° |
| 2026-04-26 11:49 | 29.72881 | 29.09865 | 35011 ft | 479 kts | 190° |
| 2026-04-26 11:50 | 29.66213 | 29.09942 | 35010 ft | 479 kts | 190° |
| 2026-04-26 11:50 | 29.59550 | 29.10397 | 35009 ft | 493 kts | 180° |
| 2026-04-26 11:51 | 29.56172 | 29.11378 | 35009 ft | 508 kts | 171° |
| 2026-04-26 11:51 | 29.52852 | 29.12814 | 35011 ft | 513 kts | 168° |
| 2026-04-26 11:51 | 29.46261 | 29.16053 | 35011 ft | 517 kts | 167° |
| 2026-04-26 11:52 | 29.40780 | 29.18858 | 35010 ft | 518 kts | 167° |
| 2026-04-26 11:52 | 29.33115 | 29.22735 | 35009 ft | 517 kts | 167° |
| 2026-04-26 11:53 | 29.26485 | 29.26040 | 35007 ft | 517 kts | 167° |
| 2026-04-26 11:54 | 29.16573 | 29.30953 | 35010 ft | 517 kts | 167° |
| 2026-04-26 11:54 | 29.10158 | 29.34930 | 35020 ft | 535 kts | 156° |
| 2026-04-26 11:55 | 29.04047 | 29.39858 | 35017 ft | 539 kts | 154° |
| 2026-04-26 11:55 | 28.98003 | 29.44934 | 35017 ft | 540 kts | 154° |
| 2026-04-26 11:56 | 28.91950 | 29.50010 | 35019 ft | 540 kts | 154° |
| 2026-04-26 11:56 | 28.85883 | 29.55054 | 35027 ft | 540 kts | 154° |
| 2026-04-26 11:57 | 28.79805 | 29.60084 | 35024 ft | 540 kts | 154° |
| 2026-04-26 11:57 | 28.73717 | 29.65111 | 35031 ft | 541 kts | 154° |
| 2026-04-26 11:58 | 28.67648 | 29.70120 | 35030 ft | 542 kts | 154° |
| 2026-04-26 11:58 | 28.61541 | 29.75154 | 35037 ft | 543 kts | 154° |
| 2026-04-26 11:59 | 28.55420 | 29.80194 | 35035 ft | 543 kts | 154° |
| 2026-04-26 11:59 | 28.49260 | 29.85257 | 35036 ft | 543 kts | 155° |
| 2026-04-26 12:00 | 28.43178 | 29.90249 | 35046 ft | 543 kts | 155° |
| 2026-04-26 12:00 | 28.37055 | 29.95265 | 35044 ft | 542 kts | 155° |
| 2026-04-26 12:01 | 28.30942 | 30.00266 | 35046 ft | 542 kts | 155° |
| 2026-04-26 12:01 | 28.24829 | 30.05260 | 35054 ft | 542 kts | 155° |
| 2026-04-26 12:02 | 28.18711 | 30.10251 | 35057 ft | 542 kts | 155° |
| 2026-04-26 12:02 | 28.12596 | 30.15231 | 35059 ft | 542 kts | 155° |
| 2026-04-26 12:03 | 28.06473 | 30.20214 | 35062 ft | 542 kts | 155° |
| 2026-04-26 12:03 | 28.00344 | 30.25194 | 35064 ft | 542 kts | 155° |
| 2026-04-26 12:04 | 27.94223 | 30.30159 | 35075 ft | 541 kts | 155° |
| 2026-04-26 12:04 | 27.89128 | 30.34286 | 35073 ft | 541 kts | 155° |
| 2026-04-26 12:05 | 27.82999 | 30.39245 | 35080 ft | 542 kts | 155° |
| 2026-04-26 12:05 | 27.76872 | 30.44195 | 35080 ft | 541 kts | 155° |
| 2026-04-26 12:06 | 27.70749 | 30.49132 | 35080 ft | 541 kts | 155° |
| 2026-04-26 12:06 | 27.64622 | 30.54068 | 35078 ft | 541 kts | 155° |
| 2026-04-26 12:07 | 27.58494 | 30.59000 | 35097 ft | 541 kts | 155° |
| 2026-04-26 12:07 | 27.52360 | 30.63928 | 35099 ft | 541 kts | 155° |
| 2026-04-26 12:08 | 27.46229 | 30.68845 | 35098 ft | 541 kts | 155° |
| 2026-04-26 12:08 | 27.40092 | 30.73764 | 35100 ft | 541 kts | 155° |
| 2026-04-26 12:09 | 27.33945 | 30.78680 | 35101 ft | 542 kts | 155° |
| 2026-04-26 12:09 | 27.27799 | 30.83587 | 35100 ft | 543 kts | 155° |
| 2026-04-26 12:10 | 27.21638 | 30.88504 | 35101 ft | 543 kts | 155° |
| 2026-04-26 12:10 | 27.15480 | 30.93408 | 35098 ft | 542 kts | 155° |
| 2026-04-26 12:11 | 27.09362 | 30.98272 | 35100 ft | 542 kts | 155° |
| 2026-04-26 12:11 | 27.03339 | 31.03434 | 35101 ft | 556 kts | 146° |
| 2026-04-26 12:12 | 26.98115 | 31.09992 | 35102 ft | 567 kts | 139° |
| 2026-04-26 12:12 | 26.93125 | 31.16879 | 35101 ft | 569 kts | 137° |
| 2026-04-26 12:13 | 26.88171 | 31.23798 | 35097 ft | 568 kts | 138° |
| 2026-04-26 12:13 | 26.83204 | 31.30667 | 35079 ft | 567 kts | 138° |
| 2026-04-26 12:14 | 26.78223 | 31.37493 | 35073 ft | 566 kts | 138° |
| 2026-04-26 12:14 | 26.73230 | 31.44323 | 35056 ft | 567 kts | 138° |
| 2026-04-26 12:15 | 26.68243 | 31.51145 | 35035 ft | 567 kts | 138° |
| 2026-04-26 12:15 | 26.63238 | 31.57979 | 35023 ft | 568 kts | 138° |
| 2026-04-26 12:16 | 26.58227 | 31.64812 | 35008 ft | 569 kts | 138° |
| 2026-04-26 12:16 | 26.53215 | 31.71635 | 34986 ft | 568 kts | 138° |
| 2026-04-26 12:17 | 26.48197 | 31.78449 | 34995 ft | 569 kts | 138° |
| 2026-04-26 12:17 | 26.43173 | 31.85269 | 34984 ft | 568 kts | 138° |
| 2026-04-26 12:18 | 26.38147 | 31.92081 | 35003 ft | 569 kts | 138° |
| 2026-04-26 12:18 | 26.33111 | 31.98889 | 35002 ft | 568 kts | 138° |
| 2026-04-26 12:19 | 26.28077 | 32.05689 | 34985 ft | 568 kts | 138° |
| 2026-04-26 12:19 | 26.23052 | 32.12470 | 34981 ft | 567 kts | 138° |
| 2026-04-26 12:20 | 26.18026 | 32.19240 | 34980 ft | 568 kts | 139° |
| 2026-04-26 12:20 | 26.12980 | 32.26025 | 34971 ft | 568 kts | 139° |
| 2026-04-26 12:21 | 26.07938 | 32.32799 | 34964 ft | 568 kts | 139° |
| 2026-04-26 12:21 | 26.02889 | 32.39567 | 34959 ft | 568 kts | 139° |
| 2026-04-26 12:22 | 25.97843 | 32.46319 | 34954 ft | 568 kts | 139° |
| 2026-04-26 12:22 | 25.92791 | 32.53074 | 34945 ft | 567 kts | 139° |
| 2026-04-26 12:23 | 25.87755 | 32.59798 | 34946 ft | 567 kts | 138° |
| 2026-04-26 12:23 | 25.82699 | 32.66539 | 34945 ft | 567 kts | 139° |
| 2026-04-26 12:24 | 25.77686 | 32.73210 | 34945 ft | 567 kts | 138° |
| 2026-04-26 12:24 | 25.72927 | 32.80257 | 34943 ft | 574 kts | 132° |
| 2026-04-26 12:25 | 25.66282 | 32.91317 | 34945 ft | 575 kts | 131° |
| 2026-04-26 12:25 | 25.61887 | 32.98718 | 34933 ft | 575 kts | 131° |
| 2026-04-26 12:26 | 25.57481 | 33.06101 | 34946 ft | 575 kts | 131° |
| 2026-04-26 12:26 | 25.53065 | 33.13468 | 34932 ft | 574 kts | 131° |
| 2026-04-26 12:27 | 25.48651 | 33.20817 | 34935 ft | 573 kts | 131° |
| 2026-04-26 12:27 | 25.44226 | 33.28173 | 34928 ft | 574 kts | 131° |
| 2026-04-26 12:28 | 25.39805 | 33.35507 | 34924 ft | 573 kts | 131° |
| 2026-04-26 12:28 | 25.35381 | 33.42842 | 34927 ft | 573 kts | 131° |
| 2026-04-26 12:29 | 25.30959 | 33.50161 | 34925 ft | 573 kts | 131° |
| 2026-04-26 12:30 | 25.24322 | 33.61140 | 34916 ft | 572 kts | 131° |
| 2026-04-26 12:30 | 25.19893 | 33.68445 | 34915 ft | 572 kts | 131° |
| 2026-04-26 12:31 | 25.13245 | 33.79386 | 34918 ft | 572 kts | 131° |
| 2026-04-26 12:31 | 25.08820 | 33.86662 | 34915 ft | 571 kts | 131° |
| 2026-04-26 12:32 | 25.04386 | 33.93934 | 34915 ft | 571 kts | 131° |
| 2026-04-26 12:33 | 24.97725 | 34.04839 | 34906 ft | 571 kts | 131° |
| 2026-04-26 12:33 | 24.93290 | 34.12092 | 34907 ft | 570 kts | 131° |
| 2026-04-26 12:34 | 24.88892 | 34.19272 | 34906 ft | 569 kts | 131° |
| 2026-04-26 12:34 | 24.84430 | 34.26541 | 34907 ft | 569 kts | 131° |
| 2026-04-26 12:35 | 24.80024 | 34.33711 | 34906 ft | 569 kts | 131° |
| 2026-04-26 12:35 | 24.75590 | 34.40912 | 34906 ft | 568 kts | 131° |
| 2026-04-26 12:36 | 24.71153 | 34.48103 | 34906 ft | 569 kts | 131° |
| 2026-04-26 12:36 | 24.66713 | 34.55300 | 34906 ft | 568 kts | 131° |
| 2026-04-26 12:37 | 24.62272 | 34.62486 | 34899 ft | 568 kts | 131° |
| 2026-04-26 12:37 | 24.57825 | 34.69668 | 34896 ft | 568 kts | 131° |
| 2026-04-26 12:38 | 24.53383 | 34.76832 | 34897 ft | 568 kts | 131° |
| 2026-04-26 12:38 | 24.48943 | 34.83985 | 34897 ft | 567 kts | 131° |
| 2026-04-26 12:39 | 24.44488 | 34.91148 | 34896 ft | 567 kts | 131° |
| 2026-04-26 12:39 | 24.40040 | 34.98290 | 34897 ft | 567 kts | 131° |
| 2026-04-26 12:40 | 24.35592 | 35.05421 | 34898 ft | 567 kts | 131° |
| 2026-04-26 12:40 | 24.31137 | 35.12558 | 34887 ft | 566 kts | 131° |
| 2026-04-26 12:41 | 24.26684 | 35.19672 | 34889 ft | 566 kts | 131° |
| 2026-04-26 12:41 | 24.22226 | 35.26787 | 34888 ft | 566 kts | 131° |
| 2026-04-26 12:42 | 24.17775 | 35.33886 | 34883 ft | 565 kts | 131° |
| 2026-04-26 12:42 | 24.13347 | 35.40935 | 34879 ft | 565 kts | 131° |
| 2026-04-26 12:43 | 24.08885 | 35.48028 | 34888 ft | 566 kts | 131° |
| 2026-04-26 12:43 | 24.04420 | 35.55114 | 34890 ft | 566 kts | 131° |
| 2026-04-26 12:44 | 23.99952 | 35.62197 | 34887 ft | 565 kts | 131° |
| 2026-04-26 12:44 | 23.95485 | 35.69267 | 34887 ft | 565 kts | 130° |
| 2026-04-26 12:45 | 23.91017 | 35.76325 | 34888 ft | 564 kts | 131° |
| 2026-04-26 12:45 | 23.86544 | 35.83375 | 34887 ft | 564 kts | 131° |
| 2026-04-26 12:46 | 23.82069 | 35.90417 | 34888 ft | 564 kts | 131° |
| 2026-04-26 12:46 | 23.77590 | 35.97456 | 34884 ft | 565 kts | 131° |
| 2026-04-26 12:47 | 23.73105 | 36.04497 | 34868 ft | 564 kts | 131° |
| 2026-04-26 12:47 | 23.68624 | 36.11526 | 34871 ft | 564 kts | 131° |
| 2026-04-26 12:48 | 23.64146 | 36.18537 | 34869 ft | 564 kts | 131° |
| 2026-04-26 12:48 | 23.59660 | 36.25548 | 34860 ft | 564 kts | 131° |
| 2026-04-26 12:49 | 23.55168 | 36.32561 | 34860 ft | 564 kts | 131° |
| 2026-04-26 12:49 | 23.50676 | 36.39565 | 34860 ft | 563 kts | 131° |
| 2026-04-26 12:50 | 23.46949 | 36.45369 | 34860 ft | 563 kts | 130° |
| 2026-04-26 12:50 | 23.42461 | 36.52351 | 34851 ft | 563 kts | 130° |
| 2026-04-26 12:51 | 23.37972 | 36.59321 | 34850 ft | 562 kts | 130° |
| 2026-04-26 12:51 | 23.33480 | 36.66287 | 34851 ft | 562 kts | 130° |
| 2026-04-26 12:52 | 23.28990 | 36.73241 | 34851 ft | 561 kts | 130° |
| 2026-04-26 12:52 | 23.24499 | 36.80188 | 34851 ft | 561 kts | 130° |
| 2026-04-26 12:53 | 23.20015 | 36.87114 | 34851 ft | 560 kts | 130° |
| 2026-04-26 12:53 | 23.15522 | 36.94048 | 34850 ft | 560 kts | 130° |
| 2026-04-26 12:54 | 23.11031 | 37.00966 | 34842 ft | 561 kts | 130° |
| 2026-04-26 12:54 | 23.06538 | 37.07878 | 34841 ft | 560 kts | 130° |
| 2026-04-26 12:55 | 23.02042 | 37.14784 | 34841 ft | 560 kts | 130° |
| 2026-04-26 12:55 | 22.97541 | 37.21672 | 34841 ft | 559 kts | 130° |
| 2026-04-26 12:56 | 22.93029 | 37.28546 | 34841 ft | 559 kts | 130° |
| 2026-04-26 12:56 | 22.88516 | 37.35416 | 34841 ft | 559 kts | 130° |
| 2026-04-26 12:57 | 22.84006 | 37.42277 | 34841 ft | 558 kts | 130° |
| 2026-04-26 12:57 | 22.79529 | 37.49081 | 34840 ft | 558 kts | 130° |
| 2026-04-26 12:58 | 22.72761 | 37.59349 | 34842 ft | 558 kts | 130° |
| 2026-04-26 12:58 | 22.68260 | 37.66181 | 34841 ft | 557 kts | 130° |
| 2026-04-26 12:59 | 22.63779 | 37.73022 | 34841 ft | 556 kts | 130° |
| 2026-04-26 12:59 | 22.59308 | 37.79849 | 34848 ft | 556 kts | 130° |
| 2026-04-26 13:00 | 22.54832 | 37.86663 | 34850 ft | 555 kts | 130° |
| 2026-04-26 13:00 | 22.50364 | 37.93455 | 34851 ft | 554 kts | 130° |
| 2026-04-26 13:01 | 22.45892 | 38.00243 | 34851 ft | 554 kts | 130° |
| 2026-04-26 13:01 | 22.41425 | 38.07015 | 34850 ft | 553 kts | 129° |
| 2026-04-26 13:02 | 22.36952 | 38.13786 | 34859 ft | 553 kts | 129° |
| 2026-04-26 13:02 | 22.32473 | 38.20560 | 34860 ft | 553 kts | 129° |
| 2026-04-26 13:03 | 22.28003 | 38.27314 | 34860 ft | 553 kts | 129° |
| 2026-04-26 13:03 | 22.23560 | 38.34016 | 34859 ft | 553 kts | 129° |
| 2026-04-26 13:04 | 22.19076 | 38.40766 | 34860 ft | 553 kts | 130° |
| 2026-04-26 13:04 | 22.14586 | 38.47517 | 34860 ft | 553 kts | 130° |
| 2026-04-26 13:05 | 22.10101 | 38.54255 | 34860 ft | 553 kts | 130° |
| 2026-04-26 13:05 | 22.05609 | 38.60995 | 34860 ft | 553 kts | 130° |
| 2026-04-26 13:06 | 22.01113 | 38.67733 | 34860 ft | 553 kts | 130° |
| 2026-04-26 13:06 | 21.96619 | 38.74459 | 34861 ft | 553 kts | 129° |
| 2026-04-26 13:07 | 21.92142 | 38.81152 | 34859 ft | 550 kts | 129° |
| 2026-04-26 13:07 | 21.87670 | 38.87828 | 34859 ft | 549 kts | 129° |
| 2026-04-26 13:08 | 21.83210 | 38.94479 | 34860 ft | 549 kts | 129° |
| 2026-04-26 13:08 | 21.78741 | 39.01135 | 34860 ft | 549 kts | 129° |
| 2026-04-26 13:09 | 21.73682 | 39.07157 | 34862 ft | 536 kts | 146° |
| 2026-04-26 13:09 | 21.70612 | 39.09382 | 34859 ft | 527 kts | 157° |
| 2026-04-26 13:09 | 21.67297 | 39.10948 | 34859 ft | 518 kts | 168° |
| 2026-04-26 13:10 | 21.60325 | 39.12118 | 34860 ft | 502 kts | 185° |
| 2026-04-26 13:10 | 21.53366 | 39.12035 | 34860 ft | 499 kts | 188° |
| 2026-04-26 13:11 | 21.46423 | 39.11752 | 34860 ft | 499 kts | 188° |
| 2026-04-26 13:11 | 21.39475 | 39.11508 | 34860 ft | 500 kts | 187° |
| 2026-04-26 13:12 | 21.32517 | 39.11314 | 34860 ft | 500 kts | 187° |
| 2026-04-26 13:12 | 21.25555 | 39.11141 | 34859 ft | 500 kts | 187° |
| 2026-04-26 13:13 | 21.18600 | 39.10967 | 34860 ft | 501 kts | 187° |
| 2026-04-26 13:13 | 21.11619 | 39.10791 | 34870 ft | 501 kts | 187° |
| 2026-04-26 13:14 | 21.04645 | 39.10615 | 34869 ft | 501 kts | 187° |
| 2026-04-26 13:14 | 20.97715 | 39.10439 | 34869 ft | 502 kts | 187° |
| 2026-04-26 13:15 | 20.90696 | 39.10262 | 35211 ft | 498 kts | 187° |
| 2026-04-26 13:15 | 20.87291 | 39.10178 | 35533 ft | 495 kts | 187° |
| 2026-04-26 13:15 | 20.84972 | 39.10120 | 35683 ft | 494 kts | 187° |
| 2026-04-26 13:16 | 20.80377 | 39.10004 | 35899 ft | 493 kts | 187° |
| 2026-04-26 13:16 | 20.76992 | 39.09918 | 36058 ft | 493 kts | 187° |
| 2026-04-26 13:16 | 20.73561 | 39.09830 | 36205 ft | 493 kts | 187° |
| 2026-04-26 13:16 | 20.70133 | 39.09745 | 36335 ft | 493 kts | 186° |
| 2026-04-26 13:17 | 20.63272 | 39.09572 | 36529 ft | 494 kts | 187° |
| 2026-04-26 13:17 | 20.59829 | 39.09484 | 36696 ft | 493 kts | 186° |
| 2026-04-26 13:18 | 20.52973 | 39.09309 | 36900 ft | 492 kts | 186° |
| 2026-04-26 13:18 | 20.49551 | 39.09223 | 36908 ft | 490 kts | 186° |
| 2026-04-26 13:19 | 20.39331 | 39.08967 | 36907 ft | 490 kts | 186° |
| 2026-04-26 13:19 | 20.32513 | 39.08794 | 36914 ft | 490 kts | 186° |
| 2026-04-26 13:20 | 20.25693 | 39.08621 | 36905 ft | 490 kts | 186° |
| 2026-04-26 13:20 | 20.18877 | 39.08450 | 36869 ft | 491 kts | 186° |
| 2026-04-26 13:21 | 20.12048 | 39.08281 | 36869 ft | 491 kts | 186° |
| 2026-04-26 13:21 | 20.05222 | 39.08110 | 36869 ft | 491 kts | 186° |
| 2026-04-26 13:22 | 19.98397 | 39.07939 | 36871 ft | 491 kts | 186° |
| 2026-04-26 13:22 | 19.91559 | 39.07768 | 36918 ft | 492 kts | 186° |
| 2026-04-26 13:23 | 19.84713 | 39.07597 | 36905 ft | 493 kts | 186° |
| 2026-04-26 13:23 | 19.77851 | 39.07426 | 36928 ft | 493 kts | 186° |
| 2026-04-26 13:24 | 19.71000 | 39.07257 | 36929 ft | 493 kts | 186° |
| 2026-04-26 13:24 | 19.64145 | 39.07086 | 36935 ft | 493 kts | 186° |
| 2026-04-26 13:25 | 19.57290 | 39.06916 | 36934 ft | 492 kts | 186° |
| 2026-04-26 13:25 | 19.50478 | 39.06748 | 36942 ft | 493 kts | 186° |
| 2026-04-26 13:26 | 19.43620 | 39.06576 | 36944 ft | 493 kts | 186° |
| 2026-04-26 13:26 | 19.36763 | 39.06405 | 36952 ft | 493 kts | 186° |
| 2026-04-26 13:27 | 19.29908 | 39.06236 | 36953 ft | 493 kts | 186° |
| 2026-04-26 13:27 | 19.23055 | 39.06067 | 36962 ft | 493 kts | 186° |
| 2026-04-26 13:28 | 19.16197 | 39.05896 | 36961 ft | 493 kts | 186° |
| 2026-04-26 13:28 | 19.09340 | 39.05703 | 36971 ft | 492 kts | 187° |
| 2026-04-26 13:29 | 19.02505 | 39.05318 | 36971 ft | 492 kts | 188° |
| 2026-04-26 13:29 | 18.95674 | 39.04887 | 36979 ft | 492 kts | 187° |
| 2026-04-26 13:30 | 18.88832 | 39.04484 | 36982 ft | 492 kts | 187° |
| 2026-04-26 13:30 | 18.82000 | 39.04102 | 36989 ft | 492 kts | 187° |
| 2026-04-26 13:31 | 18.75163 | 39.03725 | 36990 ft | 492 kts | 187° |
| 2026-04-26 13:31 | 18.68323 | 39.03348 | 36999 ft | 492 kts | 187° |
| 2026-04-26 13:32 | 18.61482 | 39.02970 | 36999 ft | 492 kts | 187° |
| 2026-04-26 13:32 | 18.54647 | 39.02592 | 37010 ft | 492 kts | 187° |
| 2026-04-26 13:33 | 18.47795 | 39.02210 | 37063 ft | 493 kts | 187° |
| 2026-04-26 13:33 | 18.40945 | 39.01831 | 37128 ft | 493 kts | 187° |
| 2026-04-26 13:34 | 18.34103 | 39.01453 | 37128 ft | 492 kts | 187° |
| 2026-04-26 13:34 | 18.27257 | 39.01076 | 37127 ft | 493 kts | 187° |
| 2026-04-26 13:35 | 18.20413 | 39.00699 | 37121 ft | 493 kts | 187° |
| 2026-04-26 13:35 | 18.13562 | 39.00339 | 37046 ft | 493 kts | 186° |
| 2026-04-26 13:36 | 18.07864 | 39.00132 | 36992 ft | 493 kts | 186° |
| 2026-04-26 13:36 | 17.99887 | 38.99875 | 36990 ft | 493 kts | 186° |
| 2026-04-26 13:37 | 17.94129 | 38.99678 | 36990 ft | 494 kts | 185° |
| 2026-04-26 13:37 | 17.86138 | 38.99394 | 36990 ft | 495 kts | 186° |
| 2026-04-26 13:38 | 17.80374 | 38.99187 | 36985 ft | 495 kts | 186° |
| 2026-04-26 13:38 | 17.73533 | 38.98941 | 36979 ft | 495 kts | 186° |
| 2026-04-26 13:39 | 17.66655 | 38.98693 | 37008 ft | 495 kts | 186° |
| 2026-04-26 13:39 | 17.59766 | 38.98446 | 37027 ft | 495 kts | 185° |
| 2026-04-26 13:40 | 17.52870 | 38.98199 | 37026 ft | 495 kts | 185° |
| 2026-04-26 13:40 | 17.45978 | 38.97952 | 37026 ft | 496 kts | 185° |
| 2026-04-26 13:41 | 17.39078 | 38.97709 | 37026 ft | 496 kts | 185° |
| 2026-04-26 13:41 | 17.32182 | 38.97457 | 37027 ft | 496 kts | 185° |
| 2026-04-26 13:42 | 17.25286 | 38.97200 | 37026 ft | 496 kts | 185° |
| 2026-04-26 13:42 | 17.18370 | 38.96945 | 37027 ft | 497 kts | 185° |
| 2026-04-26 13:43 | 17.11468 | 38.96693 | 37026 ft | 497 kts | 185° |
| 2026-04-26 13:43 | 17.04551 | 38.96442 | 37027 ft | 497 kts | 185° |
| 2026-04-26 13:44 | 16.97641 | 38.96190 | 37026 ft | 497 kts | 185° |
| 2026-04-26 13:44 | 16.90726 | 38.95938 | 37026 ft | 497 kts | 185° |
| 2026-04-26 13:45 | 16.83853 | 38.95688 | 36986 ft | 498 kts | 185° |
| 2026-04-26 13:45 | 16.76934 | 38.95437 | 36909 ft | 498 kts | 185° |
| 2026-04-26 13:46 | 16.69961 | 38.95182 | 36899 ft | 498 kts | 185° |
| 2026-04-26 13:46 | 16.63072 | 38.94932 | 36892 ft | 498 kts | 185° |
| 2026-04-26 13:47 | 16.56146 | 38.94682 | 36895 ft | 498 kts | 185° |
| 2026-04-26 13:47 | 16.49211 | 38.94432 | 36909 ft | 499 kts | 185° |
| 2026-04-26 13:48 | 16.42269 | 38.94180 | 36901 ft | 499 kts | 185° |
| 2026-04-26 13:48 | 16.35328 | 38.93929 | 36910 ft | 499 kts | 185° |
| 2026-04-26 13:49 | 16.28391 | 38.93680 | 36905 ft | 499 kts | 185° |
| 2026-04-26 13:49 | 16.21444 | 38.93428 | 36907 ft | 499 kts | 185° |
| 2026-04-26 13:50 | 16.14502 | 38.93177 | 36902 ft | 499 kts | 185° |
| 2026-04-26 13:50 | 16.07565 | 38.92926 | 36914 ft | 499 kts | 185° |
| 2026-04-26 13:51 | 16.00611 | 38.92674 | 36911 ft | 500 kts | 185° |
| 2026-04-26 13:51 | 15.93658 | 38.92422 | 36927 ft | 501 kts | 184° |
| 2026-04-26 13:52 | 15.86684 | 38.92172 | 36922 ft | 502 kts | 184° |
| 2026-04-26 13:52 | 15.79704 | 38.91919 | 36919 ft | 502 kts | 184° |
| 2026-04-26 13:53 | 15.72727 | 38.91670 | 36911 ft | 501 kts | 184° |
| 2026-04-26 13:53 | 15.65755 | 38.91419 | 36929 ft | 502 kts | 184° |
| 2026-04-26 13:54 | 15.58772 | 38.91168 | 36927 ft | 502 kts | 184° |
| 2026-04-26 13:54 | 15.51832 | 38.90920 | 36927 ft | 502 kts | 184° |
| 2026-04-26 13:55 | 15.42489 | 38.90585 | 36929 ft | 502 kts | 184° |
| 2026-04-26 13:56 | 15.30879 | 38.90171 | 36934 ft | 502 kts | 184° |
| 2026-04-26 13:56 | 15.23888 | 38.89979 | 36934 ft | 503 kts | 182° |
| 2026-04-26 13:57 | 15.16893 | 38.90000 | 36934 ft | 503 kts | 181° |
| 2026-04-26 13:57 | 15.09887 | 38.90043 | 36938 ft | 503 kts | 181° |
| 2026-04-26 13:58 | 15.02879 | 38.90055 | 36943 ft | 504 kts | 181° |
| 2026-04-26 13:58 | 14.95872 | 38.90053 | 36944 ft | 504 kts | 181° |
| 2026-04-26 13:59 | 14.88861 | 38.90044 | 36943 ft | 503 kts | 181° |
| 2026-04-26 13:59 | 14.81853 | 38.90034 | 36948 ft | 504 kts | 181° |
| 2026-04-26 14:00 | 14.67822 | 38.90019 | 36953 ft | 504 kts | 181° |
| 2026-04-26 14:01 | 14.60798 | 38.90012 | 36952 ft | 505 kts | 181° |
| 2026-04-26 14:01 | 14.53780 | 38.90290 | 36963 ft | 506 kts | 172° |
| 2026-04-26 14:02 | 14.47093 | 38.92479 | 36961 ft | 507 kts | 152° |
| 2026-04-26 14:02 | 14.41172 | 38.96454 | 36962 ft | 508 kts | 144° |
| 2026-04-26 14:03 | 14.35462 | 39.00761 | 36963 ft | 509 kts | 143° |
| 2026-04-26 14:03 | 14.29760 | 39.05092 | 36973 ft | 509 kts | 143° |
| 2026-04-26 14:04 | 14.24038 | 39.09391 | 36971 ft | 509 kts | 144° |
| 2026-04-26 14:04 | 14.18297 | 39.13674 | 36971 ft | 509 kts | 144° |
| 2026-04-26 14:05 | 14.12561 | 39.17945 | 36973 ft | 508 kts | 144° |
| 2026-04-26 14:05 | 14.06828 | 39.22215 | 36970 ft | 508 kts | 144° |
| 2026-04-26 14:06 | 14.01102 | 39.26477 | 36971 ft | 508 kts | 144° |
| 2026-04-26 14:06 | 13.95375 | 39.30737 | 36978 ft | 507 kts | 143° |
| 2026-04-26 14:07 | 13.89698 | 39.34961 | 36978 ft | 506 kts | 143° |
| 2026-04-26 14:07 | 13.83948 | 39.39226 | 36983 ft | 506 kts | 143° |
| 2026-04-26 14:08 | 13.78275 | 39.43438 | 36982 ft | 506 kts | 143° |
| 2026-04-26 14:08 | 13.72565 | 39.47675 | 36982 ft | 506 kts | 143° |
| 2026-04-26 14:09 | 13.66855 | 39.51910 | 36988 ft | 506 kts | 143° |
| 2026-04-26 14:09 | 13.61142 | 39.56145 | 36990 ft | 506 kts | 143° |
| 2026-04-26 14:10 | 13.55423 | 39.60378 | 36989 ft | 506 kts | 143° |
| 2026-04-26 14:10 | 13.49711 | 39.64608 | 36989 ft | 506 kts | 143° |
| 2026-04-26 14:11 | 13.41136 | 39.70950 | 36995 ft | 506 kts | 143° |
| 2026-04-26 14:11 | 13.35426 | 39.75172 | 36998 ft | 506 kts | 143° |
| 2026-04-26 14:12 | 13.29708 | 39.79396 | 37000 ft | 506 kts | 143° |
| 2026-04-26 14:12 | 13.23994 | 39.83613 | 36999 ft | 506 kts | 143° |
| 2026-04-26 14:13 | 13.15420 | 39.89937 | 36998 ft | 506 kts | 143° |
| 2026-04-26 14:14 | 13.09705 | 39.94149 | 37009 ft | 505 kts | 143° |
| 2026-04-26 14:14 | 13.04006 | 39.98348 | 37007 ft | 505 kts | 143° |
| 2026-04-26 14:15 | 12.98295 | 40.02553 | 37008 ft | 505 kts | 143° |
| 2026-04-26 14:15 | 12.92589 | 40.06751 | 37009 ft | 505 kts | 143° |
| 2026-04-26 14:16 | 12.86876 | 40.10952 | 37014 ft | 505 kts | 143° |
| 2026-04-26 14:16 | 12.81171 | 40.15148 | 37017 ft | 505 kts | 143° |
| 2026-04-26 14:17 | 12.75465 | 40.19338 | 37019 ft | 505 kts | 143° |
| 2026-04-26 14:17 | 12.69762 | 40.23526 | 37017 ft | 505 kts | 143° |
| 2026-04-26 14:18 | 12.64057 | 40.27713 | 37048 ft | 504 kts | 143° |
| 2026-04-26 14:18 | 12.58366 | 40.31887 | 37065 ft | 503 kts | 143° |
| 2026-04-26 14:19 | 12.52673 | 40.36060 | 37063 ft | 503 kts | 143° |
| 2026-04-26 14:19 | 12.47002 | 40.40189 | 37063 ft | 504 kts | 145° |
| 2026-04-26 14:20 | 12.40893 | 40.43674 | 37064 ft | 503 kts | 152° |
| 2026-04-26 14:20 | 12.34642 | 40.46924 | 37067 ft | 504 kts | 153° |
| 2026-04-26 14:21 | 12.28368 | 40.50132 | 37063 ft | 504 kts | 153° |
| 2026-04-26 14:21 | 12.22096 | 40.53341 | 37063 ft | 504 kts | 152° |
| 2026-04-26 14:22 | 12.15822 | 40.56558 | 37105 ft | 504 kts | 152° |
| 2026-04-26 14:22 | 12.09551 | 40.59778 | 37097 ft | 504 kts | 152° |
| 2026-04-26 14:23 | 12.03287 | 40.62995 | 37084 ft | 504 kts | 152° |
| 2026-04-26 14:23 | 11.98075 | 40.65670 | 37084 ft | 504 kts | 152° |
| 2026-04-26 14:24 | 11.91769 | 40.68904 | 37097 ft | 503 kts | 152° |
| 2026-04-26 14:24 | 11.85547 | 40.72089 | 37101 ft | 503 kts | 152° |
| 2026-04-26 14:25 | 11.79290 | 40.75291 | 37084 ft | 504 kts | 152° |
| 2026-04-26 14:25 | 11.73020 | 40.78502 | 37091 ft | 504 kts | 152° |
| 2026-04-26 14:26 | 11.66761 | 40.81705 | 37087 ft | 504 kts | 152° |
| 2026-04-26 14:26 | 11.60498 | 40.84906 | 37106 ft | 503 kts | 152° |
| 2026-04-26 14:27 | 11.54241 | 40.88104 | 37097 ft | 503 kts | 152° |
| 2026-04-26 14:27 | 11.47979 | 40.91303 | 37104 ft | 503 kts | 152° |
| 2026-04-26 14:28 | 11.41724 | 40.94497 | 37104 ft | 503 kts | 152° |
| 2026-04-26 14:28 | 11.35473 | 40.97686 | 37110 ft | 503 kts | 152° |
| 2026-04-26 14:29 | 11.29202 | 41.00885 | 37113 ft | 503 kts | 152° |
| 2026-04-26 14:29 | 11.22943 | 41.04075 | 37107 ft | 503 kts | 152° |
| 2026-04-26 14:30 | 11.16687 | 41.07263 | 37112 ft | 503 kts | 152° |
| 2026-04-26 14:30 | 11.10431 | 41.10449 | 37114 ft | 503 kts | 152° |
| 2026-04-26 14:31 | 11.04173 | 41.13635 | 37104 ft | 502 kts | 152° |
| 2026-04-26 14:31 | 10.97916 | 41.16819 | 37106 ft | 502 kts | 152° |
| 2026-04-26 14:32 | 10.91663 | 41.20000 | 37113 ft | 503 kts | 152° |
| 2026-04-26 14:32 | 10.85445 | 41.23161 | 37118 ft | 503 kts | 152° |
| 2026-04-26 14:33 | 10.79184 | 41.26341 | 37114 ft | 502 kts | 152° |
| 2026-04-26 14:33 | 10.72931 | 41.29516 | 37122 ft | 502 kts | 152° |
| 2026-04-26 14:34 | 10.66681 | 41.32688 | 37112 ft | 502 kts | 152° |
| 2026-04-26 14:34 | 10.60429 | 41.35861 | 37120 ft | 502 kts | 152° |
| 2026-04-26 14:35 | 10.54182 | 41.39028 | 37122 ft | 502 kts | 152° |
| 2026-04-26 14:35 | 10.47936 | 41.42193 | 37121 ft | 502 kts | 152° |
| 2026-04-26 14:36 | 10.41685 | 41.45360 | 37121 ft | 502 kts | 152° |
| 2026-04-26 14:36 | 10.35448 | 41.48521 | 37120 ft | 502 kts | 152° |
| 2026-04-26 14:37 | 10.29198 | 41.51686 | 37121 ft | 502 kts | 152° |
| 2026-04-26 14:37 | 10.22951 | 41.54846 | 37114 ft | 501 kts | 152° |
| 2026-04-26 14:38 | 10.16701 | 41.58008 | 37119 ft | 503 kts | 152° |
| 2026-04-26 14:38 | 10.10439 | 41.61173 | 37116 ft | 502 kts | 152° |
| 2026-04-26 14:39 | 10.04189 | 41.64331 | 37119 ft | 501 kts | 152° |
| 2026-04-26 14:39 | 9.97949 | 41.67484 | 37117 ft | 501 kts | 152° |
| 2026-04-26 14:40 | 9.91707 | 41.70635 | 37118 ft | 501 kts | 152° |
| 2026-04-26 14:40 | 9.85462 | 41.73787 | 37114 ft | 501 kts | 152° |
| 2026-04-26 14:41 | 9.79206 | 41.76943 | 37115 ft | 501 kts | 152° |
| 2026-04-26 14:41 | 9.73000 | 41.80073 | 37123 ft | 502 kts | 152° |
| 2026-04-26 14:42 | 9.66756 | 41.83221 | 37114 ft | 501 kts | 152° |
| 2026-04-26 14:42 | 9.60485 | 41.86322 | 37121 ft | 502 kts | 153° |
| 2026-04-26 14:43 | 9.54119 | 41.89216 | 37111 ft | 502 kts | 154° |
| 2026-04-26 14:43 | 9.47740 | 41.92084 | 37113 ft | 502 kts | 154° |
| 2026-04-26 14:44 | 9.41371 | 41.94984 | 37108 ft | 502 kts | 154° |
| 2026-04-26 14:44 | 9.35017 | 41.97897 | 37105 ft | 501 kts | 154° |
| 2026-04-26 14:45 | 9.28665 | 42.00811 | 37111 ft | 501 kts | 154° |
| 2026-04-26 14:45 | 9.22313 | 42.03727 | 37108 ft | 501 kts | 154° |
| 2026-04-26 14:46 | 9.15962 | 42.06638 | 37109 ft | 501 kts | 154° |
| 2026-04-26 14:46 | 9.09604 | 42.09550 | 37104 ft | 501 kts | 154° |
| 2026-04-26 14:47 | 9.03247 | 42.12461 | 37103 ft | 501 kts | 154° |
| 2026-04-26 14:47 | 8.96895 | 42.15369 | 37115 ft | 501 kts | 154° |
| 2026-04-26 14:48 | 8.90537 | 42.18278 | 37074 ft | 501 kts | 154° |
| 2026-04-26 14:48 | 8.84189 | 42.21182 | 37073 ft | 501 kts | 154° |
| 2026-04-26 14:49 | 8.77840 | 42.24085 | 37072 ft | 501 kts | 154° |
| 2026-04-26 14:49 | 8.71527 | 42.26969 | 37072 ft | 501 kts | 154° |
| 2026-04-26 14:50 | 8.65181 | 42.29869 | 37072 ft | 501 kts | 154° |
| 2026-04-26 14:50 | 8.58836 | 42.32766 | 37065 ft | 501 kts | 154° |
| 2026-04-26 14:51 | 8.52488 | 42.35664 | 37065 ft | 501 kts | 154° |
| 2026-04-26 14:51 | 8.46100 | 42.38582 | 37063 ft | 501 kts | 154° |
| 2026-04-26 14:52 | 8.39756 | 42.41480 | 37064 ft | 501 kts | 153° |
| 2026-04-26 14:52 | 8.33458 | 42.44360 | 37057 ft | 500 kts | 153° |
| 2026-04-26 14:53 | 8.27074 | 42.47276 | 37056 ft | 500 kts | 154° |
| 2026-04-26 14:53 | 8.20778 | 42.50151 | 37054 ft | 500 kts | 154° |
| 2026-04-26 14:54 | 8.14439 | 42.53047 | 37053 ft | 500 kts | 153° |
| 2026-04-26 14:54 | 8.08099 | 42.55948 | 37048 ft | 500 kts | 153° |
| 2026-04-26 14:55 | 8.01763 | 42.58845 | 37047 ft | 500 kts | 153° |
| 2026-04-26 14:55 | 7.95422 | 42.61741 | 37049 ft | 500 kts | 153° |
| 2026-04-26 14:56 | 7.89091 | 42.64632 | 37037 ft | 500 kts | 153° |
| 2026-04-26 14:56 | 7.82744 | 42.67530 | 37033 ft | 500 kts | 153° |
| 2026-04-26 14:57 | 7.76417 | 42.70418 | 37040 ft | 500 kts | 153° |
| 2026-04-26 14:57 | 7.70066 | 42.73316 | 37027 ft | 500 kts | 154° |
| 2026-04-26 14:58 | 7.63723 | 42.76209 | 37026 ft | 501 kts | 154° |
| 2026-04-26 14:58 | 7.57370 | 42.79106 | 37026 ft | 501 kts | 154° |
| 2026-04-26 14:59 | 7.51034 | 42.81993 | 37029 ft | 501 kts | 154° |
| 2026-04-26 14:59 | 7.44727 | 42.84867 | 37017 ft | 500 kts | 154° |
| 2026-04-26 15:00 | 7.38338 | 42.87779 | 37017 ft | 501 kts | 154° |
| 2026-04-26 15:00 | 7.32040 | 42.90647 | 37016 ft | 501 kts | 154° |
| 2026-04-26 15:01 | 7.25695 | 42.93534 | 37008 ft | 500 kts | 154° |
| 2026-04-26 15:01 | 7.19343 | 42.96424 | 37008 ft | 500 kts | 154° |
| 2026-04-26 15:02 | 7.13003 | 42.99308 | 37008 ft | 500 kts | 154° |
| 2026-04-26 15:02 | 7.06654 | 43.02196 | 36999 ft | 501 kts | 154° |
| 2026-04-26 15:03 | 7.00312 | 43.05080 | 36999 ft | 501 kts | 154° |
| 2026-04-26 15:03 | 6.93964 | 43.07973 | 36999 ft | 501 kts | 154° |
| 2026-04-26 15:04 | 6.87606 | 43.10875 | 36990 ft | 501 kts | 154° |
| 2026-04-26 15:04 | 6.81258 | 43.13773 | 36989 ft | 501 kts | 154° |
| 2026-04-26 15:05 | 6.74904 | 43.16672 | 36990 ft | 501 kts | 154° |
| 2026-04-26 15:05 | 6.68554 | 43.19567 | 36985 ft | 501 kts | 154° |
| 2026-04-26 15:06 | 6.62203 | 43.22463 | 36981 ft | 501 kts | 154° |
| 2026-04-26 15:06 | 6.55846 | 43.25359 | 36980 ft | 501 kts | 154° |
| 2026-04-26 15:07 | 6.46315 | 43.29705 | 36971 ft | 502 kts | 154° |
| 2026-04-26 15:07 | 6.39950 | 43.32606 | 36971 ft | 502 kts | 154° |
| 2026-04-26 15:08 | 6.33580 | 43.35506 | 36973 ft | 502 kts | 154° |
| 2026-04-26 15:08 | 6.27216 | 43.38404 | 36962 ft | 502 kts | 154° |
| 2026-04-26 15:09 | 6.20878 | 43.41288 | 36972 ft | 498 kts | 154° |
| 2026-04-26 15:09 | 6.14566 | 43.44160 | 36962 ft | 498 kts | 154° |
| 2026-04-26 15:10 | 6.10431 | 43.46042 | 36962 ft | 498 kts | 154° |
| 2026-04-26 15:10 | 6.01984 | 43.49884 | 36962 ft | 498 kts | 154° |
| 2026-04-26 15:11 | 5.95683 | 43.52748 | 36953 ft | 498 kts | 154° |
| 2026-04-26 15:11 | 5.90395 | 43.55151 | 36952 ft | 497 kts | 154° |
| 2026-04-26 15:12 | 5.84140 | 43.57994 | 36952 ft | 497 kts | 154° |
| 2026-04-26 15:12 | 5.77847 | 43.60855 | 36945 ft | 497 kts | 154° |
| 2026-04-26 15:13 | 5.71545 | 43.63718 | 36943 ft | 497 kts | 154° |
| 2026-04-26 15:13 | 5.65251 | 43.66582 | 36943 ft | 497 kts | 154° |
| 2026-04-26 15:14 | 5.58944 | 43.69458 | 36940 ft | 497 kts | 154° |
| 2026-04-26 15:14 | 5.52649 | 43.72321 | 36934 ft | 497 kts | 154° |
| 2026-04-26 15:15 | 5.46340 | 43.75192 | 36935 ft | 497 kts | 154° |
| 2026-04-26 15:15 | 5.40043 | 43.78062 | 36933 ft | 497 kts | 154° |
| 2026-04-26 15:16 | 5.33748 | 43.80929 | 36928 ft | 497 kts | 154° |
| 2026-04-26 15:16 | 5.27436 | 43.83802 | 36914 ft | 498 kts | 154° |
| 2026-04-26 15:17 | 5.22202 | 43.86182 | 36927 ft | 497 kts | 154° |
| 2026-04-26 15:17 | 5.14827 | 43.89538 | 36909 ft | 497 kts | 154° |
| 2026-04-26 15:18 | 5.08524 | 43.92405 | 36908 ft | 497 kts | 154° |
| 2026-04-26 15:18 | 5.02224 | 43.95271 | 36927 ft | 498 kts | 154° |
| 2026-04-26 15:19 | 4.95916 | 43.98139 | 36912 ft | 498 kts | 154° |
| 2026-04-26 15:19 | 4.89606 | 44.01003 | 36905 ft | 498 kts | 154° |
| 2026-04-26 15:20 | 4.83281 | 44.03826 | 36903 ft | 498 kts | 154° |
| 2026-04-26 15:20 | 4.76940 | 44.06639 | 36904 ft | 498 kts | 154° |
| 2026-04-26 15:21 | 4.70603 | 44.09458 | 36899 ft | 498 kts | 154° |
| 2026-04-26 15:21 | 4.64314 | 44.12260 | 36903 ft | 498 kts | 154° |
| 2026-04-26 15:22 | 4.57977 | 44.15082 | 36902 ft | 498 kts | 154° |
| 2026-04-26 15:22 | 4.51646 | 44.17902 | 36895 ft | 498 kts | 154° |
| 2026-04-26 15:23 | 4.45311 | 44.20726 | 36891 ft | 498 kts | 154° |
| 2026-04-26 15:23 | 4.38931 | 44.23565 | 36904 ft | 498 kts | 154° |
| 2026-04-26 15:24 | 4.32639 | 44.26365 | 36888 ft | 498 kts | 154° |
| 2026-04-26 15:24 | 4.26306 | 44.29184 | 36886 ft | 498 kts | 154° |
| 2026-04-26 15:25 | 4.21005 | 44.31542 | 36889 ft | 498 kts | 154° |
| 2026-04-26 15:25 | 4.13597 | 44.34838 | 36891 ft | 498 kts | 154° |
| 2026-04-26 15:26 | 4.07311 | 44.37636 | 36886 ft | 498 kts | 154° |
| 2026-04-26 15:26 | 4.00936 | 44.40471 | 36879 ft | 498 kts | 155° |
| 2026-04-26 15:27 | 3.94644 | 44.43268 | 36878 ft | 498 kts | 155° |
| 2026-04-26 15:27 | 3.88310 | 44.46083 | 36879 ft | 498 kts | 155° |
| 2026-04-26 15:28 | 3.81983 | 44.48895 | 36880 ft | 498 kts | 154° |
| 2026-04-26 15:28 | 3.75654 | 44.51708 | 36880 ft | 498 kts | 154° |
| 2026-04-26 15:29 | 3.69321 | 44.54522 | 36869 ft | 498 kts | 155° |
| 2026-04-26 15:30 | 3.56664 | 44.60146 | 36870 ft | 497 kts | 155° |
| 2026-04-26 15:30 | 3.50344 | 44.62953 | 36870 ft | 497 kts | 154° |
| 2026-04-26 15:31 | 3.40860 | 44.67163 | 36869 ft | 497 kts | 155° |
| 2026-04-26 15:32 | 3.32451 | 44.70896 | 36870 ft | 497 kts | 155° |
| 2026-04-26 15:32 | 3.25061 | 44.74179 | 36869 ft | 496 kts | 155° |
| 2026-04-26 15:33 | 3.18755 | 44.76977 | 36861 ft | 496 kts | 155° |
| 2026-04-26 15:33 | 3.12446 | 44.79776 | 36859 ft | 496 kts | 155° |
| 2026-04-26 15:34 | 3.06131 | 44.82580 | 36860 ft | 496 kts | 154° |
| 2026-04-26 15:34 | 2.99824 | 44.85378 | 36860 ft | 496 kts | 155° |
| 2026-04-26 15:35 | 2.93516 | 44.88175 | 36860 ft | 496 kts | 155° |
| 2026-04-26 15:35 | 2.87210 | 44.90973 | 36860 ft | 496 kts | 154° |
| 2026-04-26 15:36 | 2.80912 | 44.93766 | 36860 ft | 495 kts | 154° |
| 2026-04-26 15:36 | 2.74612 | 44.96561 | 36860 ft | 495 kts | 154° |
| 2026-04-26 15:37 | 2.68363 | 44.99331 | 36860 ft | 495 kts | 154° |
| 2026-04-26 15:37 | 2.62027 | 45.02139 | 36859 ft | 494 kts | 154° |
| 2026-04-26 15:38 | 2.55779 | 45.04909 | 36859 ft | 494 kts | 155° |
| 2026-04-26 15:38 | 2.49503 | 45.07690 | 36860 ft | 494 kts | 155° |
| 2026-04-26 15:39 | 2.43220 | 45.10475 | 36860 ft | 493 kts | 155° |
| 2026-04-26 15:39 | 2.37962 | 45.12805 | 36859 ft | 494 kts | 154° |
| 2026-04-26 15:40 | 2.30669 | 45.16037 | 36859 ft | 493 kts | 155° |
| 2026-04-26 15:40 | 2.24399 | 45.18814 | 36859 ft | 493 kts | 155° |
| 2026-04-26 15:41 | 2.18124 | 45.21595 | 36860 ft | 493 kts | 154° |
| 2026-04-26 15:41 | 2.11857 | 45.24371 | 36860 ft | 493 kts | 154° |
| 2026-04-26 15:42 | 2.05591 | 45.27147 | 36860 ft | 492 kts | 154° |
| 2026-04-26 15:42 | 1.99323 | 45.29923 | 36860 ft | 492 kts | 154° |
| 2026-04-26 15:43 | 1.93041 | 45.32640 | 36859 ft | 492 kts | 155° |
| 2026-04-26 15:44 | 1.83599 | 45.36668 | 36860 ft | 492 kts | 155° |
| 2026-04-26 15:44 | 1.74170 | 45.40712 | 36860 ft | 492 kts | 155° |
| 2026-04-26 15:45 | 1.64743 | 45.44764 | 36859 ft | 492 kts | 155° |
| 2026-04-26 15:46 | 1.55316 | 45.48813 | 36860 ft | 492 kts | 155° |
| 2026-04-26 15:46 | 1.51153 | 45.50602 | 36860 ft | 492 kts | 155° |
| 2026-04-26 15:47 | 1.39638 | 45.55547 | 36859 ft | 492 kts | 155° |
| 2026-04-26 15:48 | 1.33345 | 45.58250 | 36860 ft | 492 kts | 155° |
| 2026-04-26 15:48 | 1.27058 | 45.60951 | 36859 ft | 492 kts | 155° |
| 2026-04-26 15:49 | 1.20765 | 45.63653 | 36860 ft | 492 kts | 155° |
| 2026-04-26 15:49 | 1.14475 | 45.66355 | 36860 ft | 493 kts | 155° |
| 2026-04-26 15:50 | 1.08174 | 45.69059 | 36859 ft | 493 kts | 155° |
| 2026-04-26 15:50 | 1.01860 | 45.71770 | 36860 ft | 493 kts | 155° |
| 2026-04-26 15:51 | 0.95558 | 45.74477 | 36859 ft | 493 kts | 155° |
| 2026-04-26 15:51 | 0.89254 | 45.77182 | 36860 ft | 493 kts | 155° |
| 2026-04-26 15:52 | 0.82991 | 45.79871 | 36860 ft | 493 kts | 155° |
| 2026-04-26 15:52 | 0.76681 | 45.82580 | 36860 ft | 494 kts | 155° |
| 2026-04-26 15:53 | 0.70368 | 45.85290 | 36860 ft | 494 kts | 155° |
| 2026-04-26 15:53 | 0.64052 | 45.88002 | 36860 ft | 494 kts | 155° |
| 2026-04-26 15:54 | 0.57733 | 45.90716 | 36860 ft | 494 kts | 155° |
| 2026-04-26 15:54 | 0.51425 | 45.93438 | 36860 ft | 494 kts | 154° |
| 2026-04-26 15:55 | 0.45131 | 45.96199 | 36860 ft | 494 kts | 154° |
| 2026-04-26 15:55 | 0.38825 | 45.98971 | 36860 ft | 495 kts | 154° |
| 2026-04-26 15:56 | 0.32525 | 46.01733 | 36859 ft | 495 kts | 154° |
| 2026-04-26 15:56 | 0.26215 | 46.04496 | 36860 ft | 495 kts | 154° |
| 2026-04-26 15:57 | 0.19900 | 46.07261 | 36860 ft | 495 kts | 154° |
| 2026-04-26 15:57 | 0.13594 | 46.10020 | 36860 ft | 495 kts | 154° |
| 2026-04-26 15:58 | 0.07317 | 46.12768 | 36860 ft | 495 kts | 154° |
| 2026-04-26 15:58 | 0.02027 | 46.15085 | 36860 ft | 495 kts | 154° |
| 2026-04-26 15:59 | -0.04273 | 46.17843 | 36860 ft | 495 kts | 154° |
| 2026-04-26 15:59 | -0.10548 | 46.20590 | 36860 ft | 495 kts | 154° |
| 2026-04-26 16:00 | -0.16857 | 46.23351 | 36860 ft | 495 kts | 154° |
| 2026-04-26 16:00 | -0.23176 | 46.26108 | 36860 ft | 496 kts | 155° |
| 2026-04-26 16:01 | -0.29530 | 46.28809 | 36860 ft | 496 kts | 155° |
| 2026-04-26 16:01 | -0.35890 | 46.31502 | 36859 ft | 496 kts | 155° |
| 2026-04-26 16:02 | -0.42246 | 46.34205 | 36860 ft | 497 kts | 155° |
| 2026-04-26 16:02 | -0.48600 | 46.36915 | 36860 ft | 497 kts | 155° |
| 2026-04-26 16:03 | -0.54962 | 46.39629 | 36859 ft | 498 kts | 155° |
| 2026-04-26 16:03 | -0.61333 | 46.42347 | 36860 ft | 498 kts | 155° |
| 2026-04-26 16:04 | -0.67701 | 46.45063 | 36860 ft | 498 kts | 155° |
| 2026-04-26 16:04 | -0.74086 | 46.47788 | 36860 ft | 499 kts | 155° |
| 2026-04-26 16:05 | -0.80463 | 46.50508 | 36860 ft | 499 kts | 155° |
| 2026-04-26 16:05 | -0.86861 | 46.53237 | 36860 ft | 499 kts | 155° |
| 2026-04-26 16:06 | -0.93246 | 46.55961 | 36861 ft | 500 kts | 155° |
| 2026-04-26 16:06 | -0.99656 | 46.58697 | 36860 ft | 500 kts | 155° |
| 2026-04-26 16:07 | -1.06052 | 46.61426 | 36859 ft | 501 kts | 155° |
| 2026-04-26 16:07 | -1.12456 | 46.64158 | 36860 ft | 501 kts | 155° |
| 2026-04-26 16:08 | -1.18872 | 46.66902 | 36860 ft | 501 kts | 155° |
| 2026-04-26 16:08 | -1.25289 | 46.69638 | 36860 ft | 501 kts | 155° |
| 2026-04-26 16:09 | -1.31712 | 46.72376 | 36859 ft | 502 kts | 155° |
| 2026-04-26 16:09 | -1.38090 | 46.75098 | 36860 ft | 502 kts | 155° |
| 2026-04-26 16:10 | -1.44504 | 46.77836 | 36861 ft | 502 kts | 155° |
| 2026-04-26 16:10 | -1.50927 | 46.80575 | 36860 ft | 502 kts | 155° |
| 2026-04-26 16:11 | -1.57344 | 46.83314 | 36860 ft | 502 kts | 155° |
| 2026-04-26 16:11 | -1.63771 | 46.86058 | 36860 ft | 501 kts | 155° |
| 2026-04-26 16:12 | -1.70189 | 46.88798 | 36860 ft | 501 kts | 155° |
| 2026-04-26 16:12 | -1.79812 | 46.92908 | 36859 ft | 502 kts | 155° |
| 2026-04-26 16:13 | -1.86231 | 46.95649 | 36859 ft | 501 kts | 155° |
| 2026-04-26 16:13 | -1.92647 | 46.98390 | 36860 ft | 502 kts | 155° |
| 2026-04-26 16:14 | -1.99065 | 47.01131 | 36860 ft | 502 kts | 155° |
| 2026-04-26 16:15 | -2.08695 | 47.05243 | 36860 ft | 502 kts | 156° |
| 2026-04-26 16:15 | -2.15125 | 47.07990 | 36859 ft | 502 kts | 156° |
| 2026-04-26 16:16 | -2.24760 | 47.12107 | 36860 ft | 502 kts | 156° |
| 2026-04-26 16:16 | -2.31182 | 47.14851 | 36868 ft | 502 kts | 156° |
| 2026-04-26 16:17 | -2.37609 | 47.17597 | 36879 ft | 502 kts | 156° |
| 2026-04-26 16:17 | -2.44034 | 47.20343 | 36880 ft | 502 kts | 156° |
| 2026-04-26 16:18 | -2.53676 | 47.24464 | 36875 ft | 502 kts | 156° |
| 2026-04-26 16:19 | -2.63258 | 47.28560 | 36880 ft | 502 kts | 156° |
| 2026-04-26 16:20 | -2.72881 | 47.32673 | 36875 ft | 502 kts | 156° |
| 2026-04-26 16:20 | -2.82517 | 47.36792 | 36876 ft | 502 kts | 156° |
| 2026-04-26 16:21 | -2.88934 | 47.39538 | 36881 ft | 502 kts | 156° |
| 2026-04-26 16:21 | -2.95345 | 47.42282 | 36877 ft | 502 kts | 156° |
| 2026-04-26 16:22 | -3.01767 | 47.45030 | 36880 ft | 502 kts | 156° |
| 2026-04-26 16:22 | -3.08183 | 47.47781 | 36879 ft | 502 kts | 156° |
| 2026-04-26 16:23 | -3.14607 | 47.50526 | 36880 ft | 502 kts | 156° |
| 2026-04-26 16:23 | -3.21035 | 47.53274 | 36881 ft | 502 kts | 156° |
| 2026-04-26 16:24 | -3.27458 | 47.56024 | 36880 ft | 502 kts | 156° |
| 2026-04-26 16:24 | -3.33873 | 47.58770 | 36877 ft | 501 kts | 156° |
| 2026-04-26 16:25 | -3.40288 | 47.61516 | 36877 ft | 501 kts | 156° |
| 2026-04-26 16:25 | -3.46704 | 47.64265 | 36878 ft | 502 kts | 156° |
| 2026-04-26 16:26 | -3.52036 | 47.66548 | 36876 ft | 502 kts | 156° |
| 2026-04-26 16:26 | -3.59541 | 47.69762 | 36881 ft | 502 kts | 156° |
| 2026-04-26 16:27 | -3.65963 | 47.72513 | 36875 ft | 502 kts | 156° |
| 2026-04-26 16:27 | -3.72339 | 47.75244 | 36880 ft | 502 kts | 156° |
| 2026-04-26 16:28 | -3.78757 | 47.77995 | 36878 ft | 502 kts | 156° |
| 2026-04-26 16:28 | -3.85168 | 47.80744 | 36879 ft | 502 kts | 156° |
| 2026-04-26 16:29 | -3.91581 | 47.83491 | 36879 ft | 501 kts | 156° |
| 2026-04-26 16:29 | -3.97994 | 47.86241 | 36873 ft | 501 kts | 156° |
| 2026-04-26 16:30 | -4.04404 | 47.88990 | 36873 ft | 501 kts | 156° |
| 2026-04-26 16:30 | -4.10816 | 47.91739 | 36880 ft | 501 kts | 156° |
| 2026-04-26 16:31 | -4.17230 | 47.94490 | 36881 ft | 501 kts | 156° |
| 2026-04-26 16:31 | -4.23638 | 47.97242 | 36878 ft | 501 kts | 156° |
| 2026-04-26 16:32 | -4.28967 | 47.99527 | 36876 ft | 501 kts | 156° |
| 2026-04-26 16:32 | -4.36467 | 48.02734 | 36879 ft | 501 kts | 156° |
| 2026-04-26 16:33 | -4.42883 | 48.05483 | 36882 ft | 501 kts | 156° |
| 2026-04-26 16:33 | -4.49294 | 48.08229 | 36890 ft | 501 kts | 156° |
| 2026-04-26 16:34 | -4.55696 | 48.10974 | 36890 ft | 500 kts | 156° |
| 2026-04-26 16:34 | -4.62055 | 48.13700 | 36890 ft | 500 kts | 156° |
| 2026-04-26 16:35 | -4.68495 | 48.16462 | 36889 ft | 500 kts | 156° |
| 2026-04-26 16:35 | -4.74846 | 48.19185 | 36888 ft | 500 kts | 156° |
| 2026-04-26 16:36 | -4.81285 | 48.21946 | 36888 ft | 500 kts | 156° |
| 2026-04-26 16:36 | -4.87625 | 48.24666 | 36890 ft | 499 kts | 157° |
| 2026-04-26 16:37 | -4.94012 | 48.27407 | 36884 ft | 499 kts | 157° |
| 2026-04-26 16:37 | -4.99361 | 48.29705 | 36885 ft | 499 kts | 157° |
| 2026-04-26 16:38 | -5.06781 | 48.32890 | 36889 ft | 499 kts | 157° |
| 2026-04-26 16:38 | -5.13149 | 48.35623 | 36883 ft | 498 kts | 157° |
| 2026-04-26 16:39 | -5.19520 | 48.38359 | 36890 ft | 498 kts | 157° |
| 2026-04-26 16:39 | -5.25902 | 48.41100 | 36891 ft | 498 kts | 157° |
| 2026-04-26 16:40 | -5.32266 | 48.43834 | 36891 ft | 498 kts | 157° |
| 2026-04-26 16:40 | -5.38630 | 48.46570 | 36887 ft | 497 kts | 157° |
| 2026-04-26 16:41 | -5.44985 | 48.49301 | 36890 ft | 497 kts | 157° |
| 2026-04-26 16:41 | -5.51343 | 48.52035 | 36891 ft | 497 kts | 158° |
| 2026-04-26 16:42 | -5.57664 | 48.54754 | 36886 ft | 497 kts | 157° |
| 2026-04-26 16:42 | -5.64008 | 48.57483 | 36885 ft | 496 kts | 157° |
| 2026-04-26 16:43 | -5.70351 | 48.60213 | 36883 ft | 496 kts | 158° |
| 2026-04-26 16:43 | -5.76691 | 48.62941 | 36891 ft | 496 kts | 158° |
| 2026-04-26 16:44 | -5.83034 | 48.65671 | 36886 ft | 496 kts | 158° |
| 2026-04-26 16:44 | -5.89385 | 48.68406 | 37040 ft | 495 kts | 158° |
| 2026-04-26 16:45 | -5.92551 | 48.69770 | 37248 ft | 494 kts | 158° |
| 2026-04-26 16:45 | -5.95701 | 48.71126 | 37443 ft | 493 kts | 158° |
| 2026-04-26 16:45 | -5.98859 | 48.72486 | 37630 ft | 493 kts | 158° |
| 2026-04-26 16:45 | -6.02006 | 48.73842 | 37793 ft | 492 kts | 158° |
| 2026-04-26 16:46 | -6.05150 | 48.75197 | 37946 ft | 492 kts | 158° |
| 2026-04-26 16:46 | -6.08295 | 48.76553 | 38143 ft | 491 kts | 158° |
| 2026-04-26 16:46 | -6.11435 | 48.77907 | 38282 ft | 491 kts | 158° |
| 2026-04-26 16:46 | -6.14578 | 48.79262 | 38428 ft | 491 kts | 158° |
| 2026-04-26 16:47 | -6.20851 | 48.81965 | 38624 ft | 491 kts | 158° |
| 2026-04-26 16:47 | -6.23990 | 48.83318 | 38727 ft | 491 kts | 158° |
| 2026-04-26 16:47 | -6.26074 | 48.84216 | 38802 ft | 491 kts | 158° |
| 2026-04-26 16:48 | -6.32377 | 48.86934 | 38888 ft | 494 kts | 158° |
| 2026-04-26 16:48 | -6.38706 | 48.89665 | 38889 ft | 495 kts | 158° |
| 2026-04-26 16:49 | -6.45037 | 48.92398 | 38887 ft | 495 kts | 158° |
| 2026-04-26 16:49 | -6.51375 | 48.95134 | 38887 ft | 496 kts | 158° |
| 2026-04-26 16:50 | -6.57706 | 48.97868 | 38887 ft | 496 kts | 158° |
| 2026-04-26 16:50 | -6.64048 | 49.00607 | 38889 ft | 496 kts | 158° |
| 2026-04-26 16:51 | -6.70394 | 49.03349 | 38889 ft | 497 kts | 158° |
| 2026-04-26 16:51 | -6.76747 | 49.06095 | 38888 ft | 497 kts | 158° |
| 2026-04-26 16:52 | -6.82032 | 49.08379 | 38890 ft | 497 kts | 158° |
| 2026-04-26 16:52 | -6.89420 | 49.11576 | 38889 ft | 497 kts | 158° |
| 2026-04-26 16:53 | -6.95780 | 49.14327 | 38888 ft | 498 kts | 158° |
| 2026-04-26 16:53 | -7.02148 | 49.17082 | 38888 ft | 498 kts | 158° |
| 2026-04-26 16:54 | -7.08522 | 49.19842 | 38887 ft | 499 kts | 158° |
| 2026-04-26 16:54 | -7.14898 | 49.22601 | 38889 ft | 499 kts | 158° |
| 2026-04-26 16:55 | -7.21275 | 49.25362 | 38887 ft | 499 kts | 158° |
| 2026-04-26 16:55 | -7.27657 | 49.28124 | 38889 ft | 499 kts | 158° |
| 2026-04-26 16:56 | -7.37219 | 49.32268 | 38887 ft | 499 kts | 158° |
| 2026-04-26 16:57 | -7.43606 | 49.35037 | 38887 ft | 500 kts | 158° |
| 2026-04-26 16:57 | -7.53190 | 49.39194 | 38888 ft | 500 kts | 158° |
| 2026-04-26 16:58 | -7.58495 | 49.41495 | 38889 ft | 500 kts | 158° |
| 2026-04-26 16:59 | -7.69162 | 49.46125 | 38888 ft | 500 kts | 158° |
| 2026-04-26 17:00 | -7.81947 | 49.51678 | 38889 ft | 500 kts | 158° |
| 2026-04-26 17:00 | -7.91492 | 49.55824 | 38888 ft | 500 kts | 158° |
| 2026-04-26 17:01 | -7.97885 | 49.58605 | 38887 ft | 500 kts | 158° |
| 2026-04-26 17:01 | -8.04269 | 49.61380 | 38889 ft | 500 kts | 158° |
| 2026-04-26 17:02 | -8.10672 | 49.64165 | 38889 ft | 501 kts | 158° |
| 2026-04-26 17:02 | -8.17069 | 49.66948 | 38895 ft | 501 kts | 158° |
| 2026-04-26 17:03 | -8.23472 | 49.69734 | 38897 ft | 501 kts | 158° |
| 2026-04-26 17:03 | -8.29880 | 49.72525 | 38899 ft | 501 kts | 158° |
| 2026-04-26 17:04 | -8.36318 | 49.75329 | 38898 ft | 501 kts | 158° |
| 2026-04-26 17:04 | -8.42684 | 49.78104 | 38895 ft | 501 kts | 158° |
| 2026-04-26 17:05 | -8.49082 | 49.80893 | 38897 ft | 501 kts | 158° |
| 2026-04-26 17:05 | -8.55495 | 49.83689 | 38895 ft | 502 kts | 158° |
| 2026-04-26 17:06 | -8.61900 | 49.86484 | 38898 ft | 502 kts | 158° |
| 2026-04-26 17:06 | -8.68308 | 49.89280 | 38895 ft | 502 kts | 158° |
| 2026-04-26 17:07 | -8.74722 | 49.92079 | 38895 ft | 502 kts | 158° |
| 2026-04-26 17:07 | -8.81132 | 49.94880 | 38897 ft | 502 kts | 158° |
| 2026-04-26 17:08 | -8.87542 | 49.97681 | 38894 ft | 502 kts | 158° |
| 2026-04-26 17:08 | -8.93957 | 50.00483 | 38899 ft | 502 kts | 158° |
| 2026-04-26 17:09 | -8.99290 | 50.02814 | 38897 ft | 503 kts | 158° |
| 2026-04-26 17:09 | -9.06800 | 50.06099 | 38899 ft | 503 kts | 158° |
| 2026-04-26 17:10 | -9.13222 | 50.08909 | 38898 ft | 503 kts | 158° |
| 2026-04-26 17:10 | -9.19641 | 50.11719 | 38897 ft | 503 kts | 158° |
| 2026-04-26 17:11 | -9.26075 | 50.14539 | 38899 ft | 503 kts | 158° |
| 2026-04-26 17:11 | -9.32501 | 50.17355 | 38895 ft | 503 kts | 158° |
| 2026-04-26 17:12 | -9.42137 | 50.21576 | 38898 ft | 503 kts | 158° |
| 2026-04-26 17:13 | -9.51777 | 50.25803 | 38897 ft | 503 kts | 158° |
| 2026-04-26 17:14 | -9.61414 | 50.30032 | 38896 ft | 503 kts | 158° |
| 2026-04-26 17:14 | -9.71056 | 50.34268 | 38899 ft | 503 kts | 158° |
| 2026-04-26 17:15 | -9.80696 | 50.38506 | 38899 ft | 503 kts | 158° |
| 2026-04-26 17:16 | -9.87114 | 50.41326 | 38896 ft | 503 kts | 158° |
| 2026-04-26 17:16 | -9.93545 | 50.44154 | 38898 ft | 503 kts | 158° |
| 2026-04-26 17:17 | -9.99976 | 50.46983 | 38899 ft | 503 kts | 158° |
| 2026-04-26 17:17 | -10.06397 | 50.49808 | 38897 ft | 504 kts | 158° |
| 2026-04-26 17:18 | -10.12834 | 50.52639 | 38898 ft | 504 kts | 158° |
| 2026-04-26 17:18 | -10.19272 | 50.55474 | 38895 ft | 504 kts | 158° |
| 2026-04-26 17:19 | -10.28892 | 50.59714 | 38897 ft | 504 kts | 158° |
| 2026-04-26 17:19 | -10.35330 | 50.62551 | 38899 ft | 505 kts | 158° |
| 2026-04-26 17:20 | -10.39631 | 50.64446 | 38895 ft | 505 kts | 158° |
| 2026-04-26 17:20 | -10.48197 | 50.68227 | 38893 ft | 504 kts | 158° |
| 2026-04-26 17:21 | -10.54636 | 50.71068 | 38889 ft | 504 kts | 158° |
| 2026-04-26 17:21 | -10.61083 | 50.73913 | 38887 ft | 505 kts | 158° |
| 2026-04-26 17:22 | -10.67528 | 50.76760 | 38887 ft | 505 kts | 158° |
| 2026-04-26 17:22 | -10.73979 | 50.79612 | 38889 ft | 506 kts | 158° |
| 2026-04-26 17:23 | -10.80427 | 50.82463 | 38887 ft | 505 kts | 158° |
| 2026-04-26 17:23 | -10.86877 | 50.85316 | 38888 ft | 505 kts | 158° |
| 2026-04-26 17:24 | -10.93327 | 50.88170 | 38889 ft | 505 kts | 158° |
| 2026-04-26 17:24 | -10.99776 | 50.91024 | 38889 ft | 506 kts | 158° |
| 2026-04-26 17:25 | -11.06222 | 50.93881 | 38889 ft | 505 kts | 158° |
| 2026-04-26 17:25 | -11.12678 | 50.96743 | 38888 ft | 506 kts | 158° |
| 2026-04-26 17:26 | -11.19123 | 50.99601 | 38888 ft | 506 kts | 158° |
| 2026-04-26 17:26 | -11.25579 | 51.02464 | 38887 ft | 505 kts | 158° |
| 2026-04-26 17:27 | -11.32020 | 51.05322 | 38888 ft | 505 kts | 158° |
| 2026-04-26 17:27 | -11.38469 | 51.08187 | 38888 ft | 505 kts | 158° |
| 2026-04-26 17:28 | -11.44917 | 51.11053 | 38888 ft | 505 kts | 158° |
| 2026-04-26 17:28 | -11.51363 | 51.13917 | 38888 ft | 505 kts | 158° |
| 2026-04-26 17:29 | -11.55628 | 51.15815 | 38888 ft | 505 kts | 158° |
| 2026-04-26 17:29 | -11.64256 | 51.19654 | 38889 ft | 506 kts | 158° |
| 2026-04-26 17:30 | -11.70658 | 51.22502 | 38897 ft | 506 kts | 158° |
| 2026-04-26 17:30 | -11.77108 | 51.25376 | 38898 ft | 505 kts | 158° |
| 2026-04-26 17:31 | -11.83552 | 51.28249 | 38897 ft | 505 kts | 158° |
| 2026-04-26 17:31 | -11.89996 | 51.31123 | 38898 ft | 505 kts | 158° |
| 2026-04-26 17:32 | -11.96444 | 51.33999 | 38896 ft | 505 kts | 158° |
| 2026-04-26 17:32 | -12.02888 | 51.36873 | 38898 ft | 506 kts | 158° |
| 2026-04-26 17:33 | -12.08284 | 51.39284 | 38899 ft | 506 kts | 158° |
| 2026-04-26 17:34 | -12.17959 | 51.43616 | 38899 ft | 506 kts | 158° |
| 2026-04-26 17:34 | -12.24372 | 51.46481 | 38899 ft | 506 kts | 158° |
| 2026-04-26 17:35 | -12.30872 | 51.49386 | 38897 ft | 506 kts | 158° |
| 2026-04-26 17:35 | -12.37280 | 51.52253 | 38899 ft | 506 kts | 158° |
| 2026-04-26 17:36 | -12.43765 | 51.55158 | 38897 ft | 506 kts | 158° |
| 2026-04-26 17:36 | -12.50180 | 51.58036 | 38897 ft | 506 kts | 158° |
| 2026-04-26 17:37 | -12.56679 | 51.60950 | 38897 ft | 506 kts | 158° |
| 2026-04-26 17:37 | -12.63088 | 51.63824 | 38895 ft | 507 kts | 158° |
| 2026-04-26 17:38 | -12.72763 | 51.68167 | 38895 ft | 506 kts | 158° |
| 2026-04-26 17:38 | -12.79219 | 51.71070 | 38896 ft | 507 kts | 158° |
| 2026-04-26 17:39 | -12.85678 | 51.73973 | 38899 ft | 507 kts | 158° |
| 2026-04-26 17:39 | -12.92132 | 51.76877 | 38898 ft | 507 kts | 158° |
| 2026-04-26 17:40 | -12.97505 | 51.79295 | 38897 ft | 507 kts | 158° |
| 2026-04-26 17:40 | -13.05053 | 51.82693 | 38897 ft | 507 kts | 158° |
| 2026-04-26 17:41 | -13.11507 | 51.85602 | 38896 ft | 507 kts | 158° |
| 2026-04-26 17:41 | -13.17972 | 51.88516 | 38894 ft | 507 kts | 158° |
| 2026-04-26 17:42 | -13.24424 | 51.91427 | 38897 ft | 507 kts | 158° |
| 2026-04-26 17:42 | -13.30890 | 51.94347 | 38897 ft | 507 kts | 159° |
| 2026-04-26 17:43 | -13.37348 | 51.97263 | 38900 ft | 507 kts | 159° |
| 2026-04-26 17:43 | -13.43817 | 52.00183 | 38917 ft | 507 kts | 159° |
| 2026-04-26 17:44 | -13.50268 | 52.03107 | 38914 ft | 507 kts | 159° |
| 2026-04-26 17:44 | -13.56684 | 52.06009 | 38915 ft | 507 kts | 159° |
| 2026-04-26 17:45 | -13.63141 | 52.08931 | 38922 ft | 507 kts | 159° |
| 2026-04-26 17:45 | -13.69592 | 52.11853 | 38924 ft | 507 kts | 159° |
| 2026-04-26 17:46 | -13.76055 | 52.14781 | 38914 ft | 507 kts | 159° |
| 2026-04-26 17:46 | -13.82515 | 52.17712 | 38929 ft | 507 kts | 159° |
| 2026-04-26 17:47 | -13.87881 | 52.20147 | 38934 ft | 507 kts | 159° |
| 2026-04-26 17:47 | -13.95430 | 52.23573 | 38926 ft | 507 kts | 159° |
| 2026-04-26 17:48 | -14.01897 | 52.26512 | 38929 ft | 508 kts | 159° |
| 2026-04-26 17:48 | -14.08356 | 52.29450 | 38931 ft | 507 kts | 159° |
| 2026-04-26 17:49 | -14.14803 | 52.32383 | 38932 ft | 506 kts | 159° |
| 2026-04-26 17:49 | -14.21249 | 52.35325 | 38936 ft | 506 kts | 159° |
| 2026-04-26 17:50 | -14.27695 | 52.38264 | 38932 ft | 507 kts | 159° |
| 2026-04-26 17:50 | -14.34151 | 52.41198 | 38933 ft | 507 kts | 159° |
| 2026-04-26 17:51 | -14.40604 | 52.44130 | 38933 ft | 507 kts | 159° |
| 2026-04-26 17:51 | -14.47059 | 52.47079 | 38945 ft | 508 kts | 159° |
| 2026-04-26 17:52 | -14.53509 | 52.50035 | 38941 ft | 507 kts | 159° |
| 2026-04-26 17:52 | -14.59963 | 52.52982 | 38947 ft | 507 kts | 159° |
| 2026-04-26 17:53 | -14.66374 | 52.55910 | 38945 ft | 507 kts | 159° |
| 2026-04-26 17:54 | -14.76085 | 52.60352 | 38941 ft | 507 kts | 159° |
| 2026-04-26 17:54 | -14.82483 | 52.63282 | 38944 ft | 507 kts | 159° |
| 2026-04-26 17:55 | -14.88930 | 52.66237 | 38945 ft | 506 kts | 159° |
| 2026-04-26 17:55 | -14.95367 | 52.69190 | 38949 ft | 506 kts | 159° |
| 2026-04-26 17:56 | -15.01809 | 52.72146 | 38952 ft | 507 kts | 159° |
| 2026-04-26 17:57 | -15.14691 | 52.78062 | 38954 ft | 507 kts | 159° |
| 2026-04-26 17:57 | -15.21129 | 52.81023 | 38952 ft | 506 kts | 159° |
| 2026-04-26 17:58 | -15.34003 | 52.86949 | 38952 ft | 506 kts | 160° |
| 2026-04-26 17:59 | -15.43662 | 52.91400 | 38954 ft | 506 kts | 160° |
| 2026-04-26 17:59 | -15.50098 | 52.94369 | 38954 ft | 506 kts | 160° |
| 2026-04-26 18:00 | -15.56528 | 52.97336 | 38963 ft | 506 kts | 160° |
| 2026-04-26 18:00 | -15.62958 | 53.00305 | 38962 ft | 506 kts | 160° |
| 2026-04-26 18:01 | -15.69345 | 53.03257 | 38962 ft | 506 kts | 160° |
| 2026-04-26 18:01 | -15.75774 | 53.06230 | 38962 ft | 506 kts | 160° |
| 2026-04-26 18:02 | -15.81113 | 53.08700 | 38961 ft | 505 kts | 160° |
| 2026-04-26 18:02 | -15.88614 | 53.12174 | 38962 ft | 505 kts | 160° |
| 2026-04-26 18:03 | -15.95033 | 53.15150 | 38962 ft | 505 kts | 160° |
| 2026-04-26 18:03 | -16.01455 | 53.18128 | 38962 ft | 505 kts | 160° |
| 2026-04-26 18:04 | -16.07873 | 53.21106 | 38963 ft | 505 kts | 160° |
| 2026-04-26 18:05 | -16.17498 | 53.25577 | 38962 ft | 505 kts | 160° |
| 2026-04-26 18:05 | -16.23910 | 53.28558 | 38962 ft | 504 kts | 160° |
| 2026-04-26 18:06 | -16.30317 | 53.31540 | 38962 ft | 505 kts | 160° |
| 2026-04-26 18:06 | -16.36710 | 53.34576 | 38969 ft | 507 kts | 156° |
| 2026-04-26 18:07 | -16.42435 | 53.38855 | 38969 ft | 515 kts | 141° |
| 2026-04-26 18:07 | -16.47608 | 53.44027 | 38972 ft | 517 kts | 138° |
| 2026-04-26 18:08 | -16.52679 | 53.49331 | 38970 ft | 517 kts | 138° |
| 2026-04-26 18:08 | -16.57757 | 53.54646 | 38970 ft | 517 kts | 138° |
| 2026-04-26 18:09 | -16.62854 | 53.59948 | 38972 ft | 518 kts | 138° |
| 2026-04-26 18:09 | -16.67987 | 53.65272 | 38972 ft | 521 kts | 138° |
| 2026-04-26 18:10 | -16.73119 | 53.70603 | 38971 ft | 522 kts | 138° |
| 2026-04-26 18:10 | -16.78268 | 53.75952 | 38971 ft | 522 kts | 138° |
| 2026-04-26 18:11 | -16.83410 | 53.81298 | 38971 ft | 522 kts | 138° |
| 2026-04-26 18:11 | -16.88555 | 53.86656 | 38972 ft | 522 kts | 138° |
| 2026-04-26 18:12 | -16.93691 | 53.92007 | 38971 ft | 522 kts | 138° |
| 2026-04-26 18:12 | -16.98841 | 53.97377 | 38971 ft | 522 kts | 138° |
| 2026-04-26 18:13 | -17.03980 | 54.02743 | 38971 ft | 523 kts | 139° |
| 2026-04-26 18:13 | -17.09127 | 54.08119 | 38971 ft | 523 kts | 139° |
| 2026-04-26 18:14 | -17.14270 | 54.13497 | 38971 ft | 523 kts | 138° |
| 2026-04-26 18:14 | -17.19379 | 54.18842 | 38971 ft | 523 kts | 139° |
| 2026-04-26 18:15 | -17.24525 | 54.24228 | 38971 ft | 524 kts | 139° |
| 2026-04-26 18:15 | -17.29701 | 54.29650 | 38971 ft | 523 kts | 139° |
| 2026-04-26 18:16 | -17.34844 | 54.35044 | 38971 ft | 524 kts | 139° |
| 2026-04-26 18:16 | -17.42528 | 54.43112 | 38971 ft | 524 kts | 139° |
| 2026-04-26 18:17 | -17.47673 | 54.48522 | 38971 ft | 524 kts | 139° |
| 2026-04-26 18:17 | -17.52815 | 54.53932 | 38971 ft | 524 kts | 138° |
| 2026-04-26 18:18 | -17.57950 | 54.59340 | 38971 ft | 524 kts | 139° |
| 2026-04-26 18:18 | -17.63086 | 54.64751 | 38971 ft | 524 kts | 138° |
| 2026-04-26 18:19 | -17.68223 | 54.70166 | 38971 ft | 524 kts | 138° |
| 2026-04-26 18:19 | -17.73369 | 54.75599 | 38971 ft | 524 kts | 138° |
| 2026-04-26 18:20 | -17.78508 | 54.81028 | 38971 ft | 524 kts | 138° |
| 2026-04-26 18:20 | -17.81904 | 54.84618 | 38971 ft | 524 kts | 138° |
| 2026-04-26 18:21 | -17.87893 | 54.90954 | 38972 ft | 523 kts | 138° |
| 2026-04-26 18:21 | -17.93025 | 54.96390 | 38971 ft | 523 kts | 138° |
| 2026-04-26 18:22 | -17.98146 | 55.01818 | 38971 ft | 523 kts | 138° |
| 2026-04-26 18:22 | -18.03273 | 55.07259 | 38970 ft | 524 kts | 138° |
| 2026-04-26 18:23 | -18.08400 | 55.12704 | 38972 ft | 524 kts | 138° |
| 2026-04-26 18:23 | -18.13527 | 55.18153 | 38972 ft | 524 kts | 138° |
| 2026-04-26 18:24 | -18.18655 | 55.23607 | 38972 ft | 524 kts | 138° |
| 2026-04-26 18:24 | -18.23784 | 55.29066 | 38973 ft | 524 kts | 138° |
| 2026-04-26 18:25 | -18.28897 | 55.34515 | 38996 ft | 524 kts | 138° |
| 2026-04-26 18:25 | -18.34021 | 55.39980 | 38991 ft | 524 kts | 138° |
| 2026-04-26 18:26 | -18.39138 | 55.45450 | 38988 ft | 524 kts | 138° |
| 2026-04-26 18:26 | -18.44271 | 55.50935 | 38977 ft | 525 kts | 138° |
| 2026-04-26 18:27 | -18.49353 | 55.56371 | 38969 ft | 524 kts | 138° |
| 2026-04-26 18:27 | -18.54685 | 55.61664 | 38971 ft | 522 kts | 141° |
| 2026-04-26 18:28 | -18.59969 | 55.66853 | 38971 ft | 523 kts | 141° |
| 2026-04-26 18:28 | -18.65265 | 55.72093 | 38971 ft | 522 kts | 140° |
| 2026-04-26 18:29 | -18.70554 | 55.77345 | 38971 ft | 523 kts | 140° |
| 2026-04-26 18:29 | -18.75852 | 55.82613 | 38971 ft | 523 kts | 141° |
| 2026-04-26 18:30 | -18.81147 | 55.87883 | 38971 ft | 523 kts | 140° |
| 2026-04-26 18:30 | -18.86442 | 55.93158 | 38964 ft | 523 kts | 140° |
| 2026-04-26 18:31 | -18.89076 | 55.95785 | 38807 ft | 520 kts | 141° |
| 2026-04-26 18:31 | -18.91679 | 55.98386 | 38748 ft | 509 kts | 141° |
| 2026-04-26 18:31 | -18.94235 | 56.00939 | 38452 ft | 505 kts | 141° |
| 2026-04-26 18:31 | -18.96776 | 56.03475 | 37798 ft | 505 kts | 141° |
| 2026-04-26 18:32 | -18.99337 | 56.06031 | 37155 ft | 504 kts | 141° |
| 2026-04-26 18:32 | -19.01884 | 56.08579 | 36531 ft | 503 kts | 141° |
| 2026-04-26 18:32 | -19.04423 | 56.11120 | 35914 ft | 502 kts | 141° |
| 2026-04-26 18:32 | -19.06924 | 56.13619 | 35286 ft | 501 kts | 141° |
| 2026-04-26 18:33 | -19.09453 | 56.16148 | 34620 ft | 501 kts | 141° |
| 2026-04-26 18:33 | -19.11988 | 56.18686 | 33888 ft | 502 kts | 141° |
| 2026-04-26 18:33 | -19.14524 | 56.21228 | 33140 ft | 503 kts | 141° |
| 2026-04-26 18:33 | -19.17066 | 56.23773 | 32381 ft | 504 kts | 141° |
| 2026-04-26 18:34 | -19.19609 | 56.26319 | 31606 ft | 504 kts | 140° |
| 2026-04-26 18:34 | -19.22157 | 56.28873 | 30818 ft | 504 kts | 140° |
| 2026-04-26 18:34 | -19.24702 | 56.31426 | 29994 ft | 505 kts | 140° |
| 2026-04-26 18:34 | -19.27247 | 56.33980 | 29290 ft | 502 kts | 140° |
| 2026-04-26 18:35 | -19.29768 | 56.36513 | 28662 ft | 498 kts | 140° |
| 2026-04-26 18:35 | -19.32270 | 56.39027 | 28049 ft | 493 kts | 140° |
| 2026-04-26 18:35 | -19.34744 | 56.41515 | 27438 ft | 489 kts | 140° |
| 2026-04-26 18:35 | -19.37206 | 56.43990 | 26878 ft | 484 kts | 139° |
| 2026-04-26 18:36 | -19.39632 | 56.46431 | 26273 ft | 480 kts | 139° |
| 2026-04-26 18:36 | -19.42038 | 56.48852 | 25683 ft | 475 kts | 139° |
| 2026-04-26 18:36 | -19.44422 | 56.51252 | 25103 ft | 470 kts | 139° |
| 2026-04-26 18:36 | -19.46778 | 56.53625 | 24530 ft | 465 kts | 139° |
| 2026-04-26 18:37 | -19.49106 | 56.55971 | 23949 ft | 460 kts | 139° |
| 2026-04-26 18:37 | -19.51414 | 56.58298 | 23403 ft | 455 kts | 139° |
| 2026-04-26 18:37 | -19.53690 | 56.60595 | 22835 ft | 449 kts | 139° |
| 2026-04-26 18:37 | -19.55946 | 56.62870 | 22277 ft | 444 kts | 139° |
| 2026-04-26 18:38 | -19.58170 | 56.65114 | 21726 ft | 439 kts | 138° |
| 2026-04-26 18:38 | -19.60374 | 56.67340 | 21154 ft | 435 kts | 138° |
| 2026-04-26 18:38 | -19.62548 | 56.69536 | 20620 ft | 430 kts | 138° |
| 2026-04-26 18:38 | -19.64700 | 56.71710 | 20063 ft | 425 kts | 138° |
| 2026-04-26 18:39 | -19.66833 | 56.73863 | 19525 ft | 420 kts | 138° |
| 2026-04-26 18:39 | -19.68937 | 56.75991 | 18959 ft | 416 kts | 138° |
| 2026-04-26 18:39 | -19.71020 | 56.78099 | 18404 ft | 412 kts | 138° |
| 2026-04-26 18:39 | -19.73079 | 56.80184 | 17855 ft | 408 kts | 137° |
| 2026-04-26 18:40 | -19.75125 | 56.82254 | 17294 ft | 404 kts | 137° |
| 2026-04-26 18:40 | -19.77149 | 56.84303 | 16747 ft | 400 kts | 137° |
| 2026-04-26 18:40 | -19.79153 | 56.86334 | 16161 ft | 397 kts | 137° |
| 2026-04-26 18:40 | -19.81110 | 56.88322 | 15608 ft | 393 kts | 137° |
| 2026-04-26 18:41 | -19.83104 | 56.90343 | 15021 ft | 389 kts | 137° |
| 2026-04-26 18:41 | -19.85045 | 56.92310 | 14445 ft | 385 kts | 136° |
| 2026-04-26 18:41 | -19.86982 | 56.94277 | 13868 ft | 382 kts | 136° |
| 2026-04-26 18:41 | -19.88894 | 56.96219 | 13291 ft | 378 kts | 136° |
| 2026-04-26 18:42 | -19.90763 | 56.98116 | 12720 ft | 375 kts | 136° |
| 2026-04-26 18:42 | -19.92639 | 57.00020 | 12142 ft | 371 kts | 136° |
| 2026-04-26 18:42 | -19.94491 | 57.01901 | 11649 ft | 366 kts | 136° |
| 2026-04-26 18:42 | -19.96297 | 57.03737 | 11503 ft | 353 kts | 136° |
| 2026-04-26 18:43 | -19.98023 | 57.05495 | 11371 ft | 335 kts | 135° |
| 2026-04-26 18:43 | -19.99666 | 57.07175 | 11236 ft | 322 kts | 135° |
| 2026-04-26 18:43 | -20.01248 | 57.08780 | 11114 ft | 309 kts | 135° |
| 2026-04-26 18:43 | -20.02771 | 57.10321 | 10970 ft | 295 kts | 135° |
| 2026-04-26 18:44 | -20.04228 | 57.11803 | 10834 ft | 284 kts | 135° |
| 2026-04-26 18:44 | -20.05631 | 57.13232 | 10702 ft | 275 kts | 135° |
| 2026-04-26 18:44 | -20.07006 | 57.14629 | 10405 ft | 272 kts | 134° |
| 2026-04-26 18:44 | -20.08370 | 57.16026 | 10097 ft | 272 kts | 134° |
| 2026-04-26 18:45 | -20.09735 | 57.17418 | 9780 ft | 276 kts | 134° |
| 2026-04-26 18:45 | -20.11157 | 57.18868 | 9639 ft | 289 kts | 134° |
| 2026-04-26 18:45 | -20.12605 | 57.20344 | 9426 ft | 287 kts | 134° |
| 2026-04-26 18:45 | -20.14053 | 57.21823 | 8934 ft | 289 kts | 134° |
| 2026-04-26 18:46 | -20.15499 | 57.23300 | 8450 ft | 284 kts | 134° |
| 2026-04-26 18:46 | -20.16934 | 57.24765 | 8123 ft | 288 kts | 134° |
| 2026-04-26 18:46 | -20.18382 | 57.26236 | 7747 ft | 285 kts | 134° |
| 2026-04-26 18:46 | -20.19769 | 57.27706 | 7377 ft | 283 kts | 129° |
| 2026-04-26 18:47 | -20.20939 | 57.29376 | 7015 ft | 276 kts | 122° |
| 2026-04-26 18:47 | -20.22003 | 57.31066 | 6671 ft | 274 kts | 121° |
| 2026-04-26 18:47 | -20.23063 | 57.32754 | 6343 ft | 275 kts | 121° |
| 2026-04-26 18:47 | -20.24122 | 57.34439 | 6017 ft | 273 kts | 121° |
| 2026-04-26 18:48 | -20.25176 | 57.36107 | 5672 ft | 268 kts | 121° |
| 2026-04-26 18:48 | -20.26217 | 57.37752 | 5382 ft | 269 kts | 121° |
| 2026-04-26 18:48 | -20.27256 | 57.39396 | 5033 ft | 267 kts | 121° |
| 2026-04-26 18:48 | -20.28295 | 57.41043 | 4788 ft | 266 kts | 121° |
| 2026-04-26 18:49 | -20.29306 | 57.42634 | 4650 ft | 253 kts | 121° |
| 2026-04-26 18:49 | -20.30266 | 57.44145 | 4542 ft | 239 kts | 121° |
| 2026-04-26 18:49 | -20.31165 | 57.45569 | 4440 ft | 226 kts | 121° |
| 2026-04-26 18:49 | -20.32019 | 57.46917 | 4341 ft | 213 kts | 121° |
| 2026-04-26 18:50 | -20.32825 | 57.48189 | 4263 ft | 200 kts | 120° |
| 2026-04-26 18:50 | -20.33624 | 57.49336 | 4186 ft | 186 kts | 129° |
| 2026-04-26 18:50 | -20.34318 | 57.50425 | 4009 ft | 172 kts | 112° |
| 2026-04-26 18:50 | -20.34844 | 57.51541 | 3773 ft | 166 kts | 114° |
| 2026-04-26 18:51 | -20.35388 | 57.52604 | 3555 ft | 161 kts | 116° |
| 2026-04-26 18:51 | -20.35930 | 57.53655 | 3385 ft | 165 kts | 118° |
| 2026-04-26 18:51 | -20.36475 | 57.54744 | 3176 ft | 167 kts | 118° |
| 2026-04-26 18:51 | -20.36989 | 57.55816 | 2924 ft | 159 kts | 117° |
| 2026-04-26 18:52 | -20.37471 | 57.56824 | 2699 ft | 150 kts | 117° |
| 2026-04-26 18:52 | -20.37946 | 57.57803 | 2459 ft | 142 kts | 115° |
| 2026-04-26 18:52 | -20.38381 | 57.58703 | 2236 ft | 136 kts | 115° |
| 2026-04-26 18:52 | -20.38817 | 57.59601 | 2036 ft | 136 kts | 115° |
| 2026-04-26 18:53 | -20.39251 | 57.60508 | 1819 ft | 137 kts | 115° |
| 2026-04-26 18:53 | -20.39686 | 57.61415 | 1616 ft | 138 kts | 115° |
| 2026-04-26 18:53 | -20.40124 | 57.62326 | 1393 ft | 138 kts | 115° |
| 2026-04-26 18:53 | -20.40559 | 57.63232 | 1179 ft | 138 kts | 115° |
| 2026-04-26 18:54 | -20.40995 | 57.64141 | 966 ft | 138 kts | 115° |
| 2026-04-26 18:54 | -20.41433 | 57.65054 | 753 ft | 138 kts | 115° |
| 2026-04-26 18:54 | -20.41868 | 57.65962 | 540 ft | 137 kts | 115° |
| 2026-04-26 18:54 | -20.42310 | 57.66868 | 310 ft | 138 kts | 114° |
| 2026-04-26 18:55 | -20.42738 | 57.67760 | 208 ft | 128 kts | 117° |
| 2026-04-26 18:55 | -20.43080 | 57.68472 | 184 ft | 71 kts | 117° |
| 2026-04-26 18:55 | -20.43272 | 57.68866 | 172 ft | 57 kts | 117° |
| 2026-04-26 18:55 | -20.43442 | 57.69246 | 148 ft | 56 kts | 120° |
| 2026-04-26 18:56 | -20.43540 | 57.69367 | 141 ft | 0 kts | 174° |
| 2026-04-26 18:56 | -20.43550 | 57.69367 | 141 ft | 4 kts | 181° |
| 2026-04-26 18:56 | -20.43594 | 57.69351 | 143 ft | 8 kts | 200° |
| 2026-04-26 18:56 | -20.43636 | 57.69327 | 150 ft | 5 kts | 214° |
| 2026-04-26 18:57 | -20.43648 | 57.69315 | 152 ft | 0 kts | 227° |
| 2026-04-26 18:57 | -20.41825 | 57.65872 | 571 ft | 138 kts | 115° |
| 2026-04-26 18:57 | -20.41833 | 57.65887 | 564 ft | 137 kts | 114° |
| 2026-04-26 18:57 | -20.42269 | 57.66788 | 325 ft | 138 kts | 116° |
| 2026-04-26 18:58 | -20.42701 | 57.67686 | 209 ft | 130 kts | 119° |
| 2026-04-26 18:58 | -20.43050 | 57.68411 | 187 ft | 96 kts | 117° |
| 2026-04-26 18:58 | -20.42214 | 57.66679 | 365 ft | 158 kts | 115° |